PWSweather.com
Personal Weather Stations
Station Observations
MODAVIPC
SerramonacescaIT 65025

SerramonacescaIT 65025

Lat: 42.144601, Lon: 14.052911

Elevation: 1003.94

Station Type: WS1080

Latest ConditionsUpdated 1:09:49 PM GMT+01:01 Sunday, Jan 20, 2019
Currently Today's Max Today's Min Today's Average
Temperature 46.6°F8.1°C 50.4°F10.2°C 39.2°F4.0°C 42.4°F5.8°C
Dew Point 38.4°F3.6°C 41.3°F5.2°C 33.9°F1.1°C 36.3°F2.4°C
Winds Calm Calm 3.2 mph -5.1 kmh - - 0.9 mph 1.4 kmh
Wind Gusts 0.4 mph0.6 kmh 3.6 mph5.8 kmh - -
Humidity 73% 83% 67% 79%
Pressure 29.90 in1012.5 mb 29.93 in1013.5 mb 29.89 in1012.2 mb -
Hour Temp Dew Point Humidity Winds Wind Gusts Pressure Precip Precip Rate Daily Precip Total
01:09 PM 46.6°F8.1°C 38.4°F3.6°C 73% Calm Calm 0.4 mph0.6 kmh 29.90 in1012.5 mb 0.00 in0.0 mm 0.00 in0.0 mm 0.00 in0.0 mm
01:07 PM 46.4°F8.0°C 38.2°F3.4°C 73% Calm Calm -- 29.90 in1012.5 mb 0.00 in0.0 mm 0.00 in0.0 mm 0.00 in0.0 mm
01:05 PM 46.4°F8.0°C 37.9°F3.3°C 72% Calm Calm 0.4 mph0.6 kmh 29.90 in1012.5 mb 0.00 in0.0 mm 0.00 in0.0 mm 0.00 in0.0 mm
01:03 PM 46.4°F8.0°C 37.9°F3.3°C 72% Calm Calm 0.4 mph0.6 kmh 29.90 in1012.5 mb 0.00 in0.0 mm 0.00 in0.0 mm 0.00 in0.0 mm
01:01 PM 46.4°F8.0°C 37.9°F3.3°C 72% Calm Calm 0.4 mph0.6 kmh 29.91 in1012.9 mb 0.00 in0.0 mm 0.00 in0.0 mm 0.00 in0.0 mm
12:59 PM 46.4°F8.0°C 37.9°F3.3°C 72% 0.4 mph 0.6 kmh 0.9 mph1.4 kmh 29.91 in1012.9 mb 0.00 in0.0 mm 0.00 in0.0 mm 0.00 in0.0 mm
12:57 PM 46.4°F8.0°C 37.9°F3.3°C 72% Calm Calm -- 29.91 in1012.9 mb 0.00 in0.0 mm 0.00 in0.0 mm 0.00 in0.0 mm
12:55 PM 46.4°F8.0°C 37.9°F3.3°C 72% Calm Calm 0.4 mph0.6 kmh 29.90 in1012.5 mb 0.00 in0.0 mm 0.00 in0.0 mm 0.00 in0.0 mm
12:53 PM 46.4°F8.0°C 37.9°F3.3°C 72% 0.4 mph NE0.6 kmh NE 0.9 mph1.4 kmh 29.91 in1012.9 mb 0.00 in0.0 mm 0.00 in0.0 mm 0.00 in0.0 mm
12:51 PM 46.4°F8.0°C 37.9°F3.3°C 72% Calm Calm 0.4 mph0.6 kmh 29.91 in1012.9 mb 0.00 in0.0 mm 0.00 in0.0 mm 0.00 in0.0 mm
12:49 PM 46.4°F8.0°C 37.9°F3.3°C 72% 0.4 mph 0.6 kmh 0.9 mph1.4 kmh 29.91 in1012.9 mb 0.00 in0.0 mm 0.00 in0.0 mm 0.00 in0.0 mm
12:47 PM 46.4°F8.0°C 37.9°F3.3°C 72% 0.9 mph 1.4 kmh 1.9 mph3.1 kmh 29.91 in1012.9 mb 0.00 in0.0 mm 0.00 in0.0 mm 0.00 in0.0 mm
12:45 PM 46.4°F8.0°C 37.9°F3.3°C 72% 0.9 mph 1.4 kmh 1.3 mph2.1 kmh 29.91 in1012.9 mb 0.00 in0.0 mm 0.00 in0.0 mm 0.00 in0.0 mm
12:43 PM 46.6°F8.1°C 38.1°F3.4°C 72% Calm Calm 0.4 mph0.6 kmh 29.91 in1012.9 mb 0.00 in0.0 mm 0.00 in0.0 mm 0.00 in0.0 mm
12:41 PM 46.6°F8.1°C 38.1°F3.4°C 72% 0.4 mph 0.6 kmh 0.9 mph1.4 kmh 29.91 in1012.9 mb 0.00 in0.0 mm 0.00 in0.0 mm 0.00 in0.0 mm
12:39 PM 46.4°F8.0°C 37.9°F3.3°C 72% Calm Calm -- 29.91 in1012.9 mb 0.00 in0.0 mm 0.00 in0.0 mm 0.00 in0.0 mm
12:37 PM 46.4°F8.0°C 37.9°F3.3°C 72% 0.4 mph 0.6 kmh 0.4 mph0.6 kmh 29.91 in1012.9 mb 0.00 in0.0 mm 0.00 in0.0 mm 0.00 in0.0 mm
12:35 PM 46.4°F8.0°C 37.5°F3.1°C 71% Calm Calm 0.4 mph0.6 kmh 29.91 in1012.9 mb 0.00 in0.0 mm 0.00 in0.0 mm 0.00 in0.0 mm
12:33 PM 46.4°F8.0°C 37.5°F3.1°C 71% 0.4 mph 0.6 kmh 0.4 mph0.6 kmh 29.91 in1012.9 mb 0.00 in0.0 mm 0.00 in0.0 mm 0.00 in0.0 mm
12:31 PM 46.4°F8.0°C 37.5°F3.1°C 71% 0.4 mph 0.6 kmh 0.9 mph1.4 kmh 29.91 in1012.9 mb 0.00 in0.0 mm 0.00 in0.0 mm 0.00 in0.0 mm
12:29 PM 46.6°F8.1°C 37.7°F3.2°C 71% 1.3 mph NE2.1 kmh NE 1.9 mph3.1 kmh 29.91 in1012.9 mb 0.00 in0.0 mm 0.00 in0.0 mm 0.00 in0.0 mm
12:27 PM 46.8°F8.2°C 37.9°F3.3°C 71% 1.3 mph NE2.1 kmh NE 1.9 mph3.1 kmh 29.91 in1012.9 mb 0.00 in0.0 mm 0.00 in0.0 mm 0.00 in0.0 mm
12:25 PM 46.9°F8.3°C 38.0°F3.3°C 71% 1.3 mph NE2.1 kmh NE 1.9 mph3.1 kmh 29.91 in1012.9 mb 0.00 in0.0 mm 0.00 in0.0 mm 0.00 in0.0 mm
12:23 PM 47.3°F8.5°C 38.4°F3.6°C 71% 1.3 mph NE2.1 kmh NE 1.9 mph3.1 kmh 29.91 in1012.9 mb 0.00 in0.0 mm 0.00 in0.0 mm 0.00 in0.0 mm
12:21 PM 47.5°F8.6°C 38.6°F3.7°C 71% 1.3 mph NE2.1 kmh NE 1.9 mph3.1 kmh 29.91 in1012.9 mb 0.00 in0.0 mm 0.00 in0.0 mm 0.00 in0.0 mm
12:19 PM 47.5°F8.6°C 38.6°F3.7°C 71% Calm Calm 0.4 mph0.6 kmh 29.91 in1012.9 mb 0.00 in0.0 mm 0.00 in0.0 mm 0.00 in0.0 mm
12:17 PM 47.5°F8.6°C 38.6°F3.7°C 71% 0.4 mph NE0.6 kmh NE 0.9 mph1.4 kmh 29.91 in1012.9 mb 0.00 in0.0 mm 0.00 in0.0 mm 0.00 in0.0 mm
12:15 PM 47.5°F8.6°C 38.6°F3.7°C 71% Calm Calm 0.4 mph0.6 kmh 29.91 in1012.9 mb 0.00 in0.0 mm 0.00 in0.0 mm 0.00 in0.0 mm
12:13 PM 47.5°F8.6°C 38.6°F3.7°C 71% 0.4 mph NE0.6 kmh NE 0.9 mph1.4 kmh 29.92 in1013.2 mb 0.00 in0.0 mm 0.00 in0.0 mm 0.00 in0.0 mm
12:11 PM 47.3°F8.5°C 38.4°F3.6°C 71% Calm Calm 0.4 mph0.6 kmh 29.92 in1013.2 mb 0.00 in0.0 mm 0.00 in0.0 mm 0.00 in0.0 mm
12:09 PM 47.1°F8.4°C 38.2°F3.4°C 71% Calm Calm 0.4 mph0.6 kmh 29.92 in1013.2 mb 0.00 in0.0 mm 0.00 in0.0 mm 0.00 in0.0 mm
12:07 PM 46.9°F8.3°C 38.0°F3.3°C 71% 0.4 mph 0.6 kmh 0.9 mph1.4 kmh 29.92 in1013.2 mb 0.00 in0.0 mm 0.00 in0.0 mm 0.00 in0.0 mm
12:05 PM 46.8°F8.2°C 37.9°F3.3°C 71% 0.4 mph NE0.6 kmh NE 0.9 mph1.4 kmh 29.91 in1012.9 mb 0.00 in0.0 mm 0.00 in0.0 mm 0.00 in0.0 mm
12:03 PM 46.8°F8.2°C 37.5°F3.1°C 70% 1.3 mph NE2.1 kmh NE 1.9 mph3.1 kmh 29.92 in1013.2 mb 0.00 in0.0 mm 0.00 in0.0 mm 0.00 in0.0 mm
12:01 PM 46.9°F8.3°C 37.7°F3.2°C 70% 1.9 mph NNE3.1 kmh NNE 2.3 mph3.7 kmh 29.92 in1013.2 mb 0.00 in0.0 mm 0.00 in0.0 mm 0.00 in0.0 mm
11:59 AM 47.3°F8.5°C 38.0°F3.3°C 70% 1.9 mph NE3.1 kmh NE 2.7 mph4.3 kmh 29.92 in1013.2 mb 0.00 in0.0 mm 0.00 in0.0 mm 0.00 in0.0 mm
11:57 AM 47.3°F8.5°C 38.0°F3.3°C 70% 1.3 mph NE2.1 kmh NE 1.9 mph3.1 kmh 29.92 in1013.2 mb 0.00 in0.0 mm 0.00 in0.0 mm 0.00 in0.0 mm
11:55 AM 47.5°F8.6°C 38.2°F3.4°C 70% 0.4 mph NE0.6 kmh NE 0.9 mph1.4 kmh 29.92 in1013.2 mb 0.00 in0.0 mm 0.00 in0.0 mm 0.00 in0.0 mm
11:53 AM 47.7°F8.7°C 38.4°F3.6°C 70% 1.3 mph NE2.1 kmh NE 1.9 mph3.1 kmh 29.92 in1013.2 mb 0.00 in0.0 mm 0.00 in0.0 mm 0.00 in0.0 mm
11:51 AM 47.8°F8.8°C 38.5°F3.6°C 70% 0.4 mph NE0.6 kmh NE 0.9 mph1.4 kmh 29.92 in1013.2 mb 0.00 in0.0 mm 0.00 in0.0 mm 0.00 in0.0 mm
11:49 AM 48.0°F8.9°C 38.7°F3.7°C 70% 0.4 mph NE0.6 kmh NE 0.9 mph1.4 kmh 29.91 in1012.9 mb 0.00 in0.0 mm 0.00 in0.0 mm 0.00 in0.0 mm
11:47 AM 48.4°F9.1°C 39.4°F4.1°C 71% 0.9 mph NE1.4 kmh NE 1.3 mph2.1 kmh 29.92 in1013.2 mb 0.00 in0.0 mm 0.00 in0.0 mm 0.00 in0.0 mm
11:45 AM 48.4°F9.1°C 39.4°F4.1°C 71% Calm Calm 0.4 mph0.6 kmh 29.92 in1013.2 mb 0.00 in0.0 mm 0.00 in0.0 mm 0.00 in0.0 mm
11:43 AM 48.4°F9.1°C 39.4°F4.1°C 71% Calm Calm 0.4 mph0.6 kmh 29.92 in1013.2 mb 0.00 in0.0 mm 0.00 in0.0 mm 0.00 in0.0 mm
11:41 AM 48.4°F9.1°C 39.4°F4.1°C 71% 0.4 mph E0.6 kmh E 0.9 mph1.4 kmh 29.92 in1013.2 mb 0.00 in0.0 mm 0.00 in0.0 mm 0.00 in0.0 mm
11:39 AM 48.2°F9.0°C 39.2°F4.0°C 71% Calm Calm 0.4 mph0.6 kmh 29.92 in1013.2 mb 0.00 in0.0 mm 0.00 in0.0 mm 0.00 in0.0 mm
11:37 AM 48.2°F9.0°C 39.2°F4.0°C 71% 0.4 mph W0.6 kmh W 0.9 mph1.4 kmh 29.92 in1013.2 mb 0.00 in0.0 mm 0.00 in0.0 mm 0.00 in0.0 mm
11:35 AM 48.0°F8.9°C 39.1°F3.9°C 71% 0.4 mph SW0.6 kmh SW 0.9 mph1.4 kmh 29.93 in1013.5 mb 0.00 in0.0 mm 0.00 in0.0 mm 0.00 in0.0 mm
11:33 AM 47.8°F8.8°C 38.9°F3.8°C 71% Calm Calm 0.4 mph0.6 kmh 29.92 in1013.2 mb 0.00 in0.0 mm 0.00 in0.0 mm 0.00 in0.0 mm
11:31 AM 47.8°F8.8°C 38.5°F3.6°C 70% Calm Calm 0.9 mph1.4 kmh 29.92 in1013.2 mb 0.00 in0.0 mm 0.00 in0.0 mm 0.00 in0.0 mm
11:29 AM 47.7°F8.7°C 38.4°F3.6°C 70% 0.4 mph NE0.6 kmh NE 0.9 mph1.4 kmh 29.92 in1013.2 mb 0.00 in0.0 mm 0.00 in0.0 mm 0.00 in0.0 mm
11:27 AM 47.5°F8.6°C 38.2°F3.4°C 70% Calm Calm 0.4 mph0.6 kmh 29.92 in1013.2 mb 0.00 in0.0 mm 0.00 in0.0 mm 0.00 in0.0 mm
11:25 AM 47.5°F8.6°C 38.2°F3.4°C 70% Calm Calm 0.4 mph0.6 kmh 29.92 in1013.2 mb 0.00 in0.0 mm 0.00 in0.0 mm 0.00 in0.0 mm
11:23 AM 47.5°F8.6°C 38.2°F3.4°C 70% 0.4 mph 0.6 kmh 0.9 mph1.4 kmh 29.92 in1013.2 mb 0.00 in0.0 mm 0.00 in0.0 mm 0.00 in0.0 mm
11:21 AM 47.7°F8.7°C 38.0°F3.3°C 69% Calm Calm 0.4 mph0.6 kmh 29.93 in1013.5 mb 0.00 in0.0 mm 0.00 in0.0 mm 0.00 in0.0 mm
11:19 AM 47.8°F8.8°C 37.8°F3.2°C 68% 0.4 mph NE0.6 kmh NE 0.9 mph1.4 kmh 29.92 in1013.2 mb 0.00 in0.0 mm 0.00 in0.0 mm 0.00 in0.0 mm
11:17 AM 48.0°F8.9°C 38.0°F3.3°C 68% 0.4 mph NE0.6 kmh NE 0.9 mph1.4 kmh 29.93 in1013.5 mb 0.00 in0.0 mm 0.00 in0.0 mm 0.00 in0.0 mm
11:15 AM 48.2°F9.0°C 37.8°F3.2°C 67% 0.4 mph 0.6 kmh 0.9 mph1.4 kmh 29.92 in1013.2 mb 0.00 in0.0 mm 0.00 in0.0 mm 0.00 in0.0 mm
11:13 AM 48.6°F9.2°C 38.1°F3.4°C 67% 0.4 mph NE0.6 kmh NE 0.9 mph1.4 kmh 29.93 in1013.5 mb 0.00 in0.0 mm 0.00 in0.0 mm 0.00 in0.0 mm
11:11 AM 49.1°F9.5°C 38.6°F3.7°C 67% 1.3 mph NE2.1 kmh NE 1.9 mph3.1 kmh 29.93 in1013.5 mb 0.00 in0.0 mm 0.00 in0.0 mm 0.00 in0.0 mm
11:09 AM 49.3°F9.6°C 39.2°F4.0°C 68% 0.9 mph NE1.4 kmh NE 1.3 mph2.1 kmh 29.92 in1013.2 mb 0.00 in0.0 mm 0.00 in0.0 mm 0.00 in0.0 mm
11:07 AM 50.0°F10.0°C 40.6°F4.8°C 70% 2.3 mph NE3.7 kmh NE 2.7 mph4.3 kmh 29.92 in1013.2 mb 0.00 in0.0 mm 0.00 in0.0 mm 0.00 in0.0 mm
11:05 AM 50.4°F10.2°C 41.0°F5.0°C 70% 0.4 mph 0.6 kmh 0.9 mph1.4 kmh 29.93 in1013.5 mb 0.00 in0.0 mm 0.00 in0.0 mm 0.00 in0.0 mm
11:03 AM 50.4°F10.2°C 41.3°F5.2°C 71% Calm Calm 0.9 mph1.4 kmh 29.93 in1013.5 mb 0.00 in0.0 mm 0.00 in0.0 mm 0.00 in0.0 mm
11:01 AM 50.2°F10.1°C 41.2°F5.1°C 71% Calm Calm -- 29.93 in1013.5 mb 0.00 in0.0 mm 0.00 in0.0 mm 0.00 in0.0 mm
10:59 AM 50.0°F10.0°C 41.0°F5.0°C 71% 0.4 mph NE0.6 kmh NE 0.9 mph1.4 kmh 29.92 in1013.2 mb 0.00 in0.0 mm 0.00 in0.0 mm 0.00 in0.0 mm
10:57 AM 50.0°F10.0°C 41.0°F5.0°C 71% Calm Calm 0.4 mph0.6 kmh 29.92 in1013.2 mb 0.00 in0.0 mm 0.00 in0.0 mm 0.00 in0.0 mm
10:55 AM 49.8°F9.9°C 41.2°F5.1°C 72% Calm Calm 0.4 mph0.6 kmh 29.93 in1013.5 mb 0.00 in0.0 mm 0.00 in0.0 mm 0.00 in0.0 mm
10:53 AM 49.5°F9.7°C 40.8°F4.9°C 72% Calm Calm -- 29.93 in1013.5 mb 0.00 in0.0 mm 0.00 in0.0 mm 0.00 in0.0 mm
10:51 AM 49.3°F9.6°C 41.0°F5.0°C 73% 0.4 mph 0.6 kmh 0.4 mph0.6 kmh 29.93 in1013.5 mb 0.00 in0.0 mm 0.00 in0.0 mm 0.00 in0.0 mm
10:49 AM 49.1°F9.5°C 40.8°F4.9°C 73% Calm Calm 0.4 mph0.6 kmh 29.93 in1013.5 mb 0.00 in0.0 mm 0.00 in0.0 mm 0.00 in0.0 mm
10:47 AM 48.6°F9.2°C 40.7°F4.8°C 74% 0.4 mph W0.6 kmh W 0.9 mph1.4 kmh 29.93 in1013.5 mb 0.00 in0.0 mm 0.00 in0.0 mm 0.00 in0.0 mm
10:45 AM 48.2°F9.0°C 40.7°F4.8°C 75% Calm Calm 0.4 mph0.6 kmh 29.93 in1013.5 mb 0.00 in0.0 mm 0.00 in0.0 mm 0.00 in0.0 mm
10:43 AM 47.7°F8.7°C 40.1°F4.5°C 75% 0.4 mph NE0.6 kmh NE 0.9 mph1.4 kmh 29.93 in1013.5 mb 0.00 in0.0 mm 0.00 in0.0 mm 0.00 in0.0 mm
10:41 AM 47.1°F8.4°C 39.6°F4.2°C 75% Calm Calm 0.4 mph0.6 kmh 29.93 in1013.5 mb 0.00 in0.0 mm 0.00 in0.0 mm 0.00 in0.0 mm
10:39 AM 46.6°F8.1°C 39.1°F3.9°C 75% Calm Calm 0.4 mph0.6 kmh 29.93 in1013.5 mb 0.00 in0.0 mm 0.00 in0.0 mm 0.00 in0.0 mm
10:37 AM 46.4°F8.0°C 38.9°F3.8°C 75% Calm Calm 0.4 mph0.6 kmh 29.93 in1013.5 mb 0.00 in0.0 mm 0.00 in0.0 mm 0.00 in0.0 mm
10:35 AM 46.0°F7.8°C 38.2°F3.4°C 74% Calm Calm 0.4 mph0.6 kmh 29.93 in1013.5 mb 0.00 in0.0 mm 0.00 in0.0 mm 0.00 in0.0 mm
10:33 AM 45.9°F7.7°C 38.1°F3.4°C 74% Calm Calm 0.4 mph0.6 kmh 29.93 in1013.5 mb 0.00 in0.0 mm 0.00 in0.0 mm 0.00 in0.0 mm
10:31 AM 45.7°F7.6°C 38.2°F3.4°C 75% Calm Calm 0.4 mph0.6 kmh 29.93 in1013.5 mb 0.00 in0.0 mm 0.00 in0.0 mm 0.00 in0.0 mm
10:29 AM 45.5°F7.5°C 38.0°F3.3°C 75% Calm Calm 0.4 mph0.6 kmh 29.93 in1013.5 mb 0.00 in0.0 mm 0.00 in0.0 mm 0.00 in0.0 mm
10:27 AM 45.3°F7.4°C 39.8°F4.3°C 81% 0.4 mph NE0.6 kmh NE 0.9 mph1.4 kmh 29.93 in1013.5 mb 0.00 in0.0 mm 0.00 in0.0 mm 0.00 in0.0 mm
10:25 AM 45.3°F7.4°C 39.8°F4.3°C 81% Calm Calm 0.4 mph0.6 kmh 29.93 in1013.5 mb 0.00 in0.0 mm 0.00 in0.0 mm 0.00 in0.0 mm
10:23 AM 45.3°F7.4°C 39.8°F4.3°C 81% 0.9 mph NE1.4 kmh NE 1.9 mph3.1 kmh 29.93 in1013.5 mb 0.00 in0.0 mm 0.00 in0.0 mm 0.00 in0.0 mm
10:21 AM 45.1°F7.3°C 39.7°F4.3°C 81% 0.9 mph 1.4 kmh 1.3 mph2.1 kmh 29.93 in1013.5 mb 0.00 in0.0 mm 0.00 in0.0 mm 0.00 in0.0 mm
10:19 AM 45.0°F7.2°C 39.5°F4.2°C 81% Calm Calm 0.4 mph0.6 kmh 29.93 in1013.5 mb 0.00 in0.0 mm 0.00 in0.0 mm 0.00 in0.0 mm
10:17 AM 45.0°F7.2°C 39.5°F4.2°C 81% Calm Calm 0.4 mph0.6 kmh 29.93 in1013.5 mb 0.00 in0.0 mm 0.00 in0.0 mm 0.00 in0.0 mm
10:15 AM 44.8°F7.1°C 39.3°F4.1°C 81% 1.3 mph NW2.1 kmh NW 1.9 mph3.1 kmh 29.93 in1013.5 mb 0.00 in0.0 mm 0.00 in0.0 mm 0.00 in0.0 mm
10:13 AM 44.8°F7.1°C 39.3°F4.1°C 81% 1.3 mph NE2.1 kmh NE 1.9 mph3.1 kmh 29.92 in1013.2 mb 0.00 in0.0 mm 0.00 in0.0 mm 0.00 in0.0 mm
10:11 AM 44.6°F7.0°C 39.1°F3.9°C 81% 1.3 mph NE2.1 kmh NE 1.9 mph3.1 kmh 29.92 in1013.2 mb 0.00 in0.0 mm 0.00 in0.0 mm 0.00 in0.0 mm
10:09 AM 44.6°F7.0°C 39.1°F3.9°C 81% 0.4 mph 0.6 kmh 1.3 mph2.1 kmh 29.93 in1013.5 mb 0.00 in0.0 mm 0.00 in0.0 mm 0.00 in0.0 mm
10:07 AM 44.6°F7.0°C 39.1°F3.9°C 81% 1.3 mph NE2.1 kmh NE 1.9 mph3.1 kmh 29.93 in1013.5 mb 0.00 in0.0 mm 0.00 in0.0 mm 0.00 in0.0 mm
10:05 AM 44.6°F7.0°C 39.1°F3.9°C 81% 0.9 mph NE1.4 kmh NE 1.3 mph2.1 kmh 29.93 in1013.5 mb 0.00 in0.0 mm 0.00 in0.0 mm 0.00 in0.0 mm
10:03 AM 44.8°F7.1°C 39.6°F4.2°C 82% 0.9 mph NNE1.4 kmh NNE 1.3 mph2.1 kmh 29.93 in1013.5 mb 0.00 in0.0 mm 0.00 in0.0 mm 0.00 in0.0 mm
10:01 AM 44.6°F7.0°C 39.5°F4.2°C 82% 0.9 mph NE1.4 kmh NE 1.3 mph2.1 kmh 29.93 in1013.5 mb 0.00 in0.0 mm 0.00 in0.0 mm 0.00 in0.0 mm
09:59 AM 44.4°F6.9°C 39.3°F4.1°C 82% Calm Calm 0.4 mph0.6 kmh 29.92 in1013.2 mb 0.00 in0.0 mm 0.00 in0.0 mm 0.00 in0.0 mm
09:57 AM 44.2°F6.8°C 38.8°F3.8°C 81% Calm Calm -- 29.93 in1013.5 mb 0.00 in0.0 mm 0.00 in0.0 mm 0.00 in0.0 mm
09:55 AM 44.1°F6.7°C 38.6°F3.7°C 81% 0.9 mph 1.4 kmh 1.3 mph2.1 kmh 29.93 in1013.5 mb 0.00 in0.0 mm 0.00 in0.0 mm 0.00 in0.0 mm
09:53 AM 43.9°F6.6°C 38.4°F3.6°C 81% 0.4 mph NE0.6 kmh NE 0.9 mph1.4 kmh 29.93 in1013.5 mb 0.00 in0.0 mm 0.00 in0.0 mm 0.00 in0.0 mm
09:51 AM 43.7°F6.5°C 38.3°F3.5°C 81% 0.9 mph NE1.4 kmh NE 1.9 mph3.1 kmh 29.92 in1013.2 mb 0.00 in0.0 mm 0.00 in0.0 mm 0.00 in0.0 mm
09:49 AM 43.7°F6.5°C 38.3°F3.5°C 81% 1.3 mph NE2.1 kmh NE 1.9 mph3.1 kmh 29.92 in1013.2 mb 0.00 in0.0 mm 0.00 in0.0 mm 0.00 in0.0 mm
09:47 AM 43.9°F6.6°C 38.4°F3.6°C 81% 1.3 mph NE2.1 kmh NE 1.9 mph3.1 kmh 29.92 in1013.2 mb 0.00 in0.0 mm 0.00 in0.0 mm 0.00 in0.0 mm
09:45 AM 43.9°F6.6°C 38.1°F3.4°C 80% 1.3 mph NE2.1 kmh NE 1.9 mph3.1 kmh 29.92 in1013.2 mb 0.00 in0.0 mm 0.00 in0.0 mm 0.00 in0.0 mm
09:43 AM 43.7°F6.5°C 37.9°F3.3°C 80% 0.9 mph NE1.4 kmh NE 1.3 mph2.1 kmh 29.93 in1013.5 mb 0.00 in0.0 mm 0.00 in0.0 mm 0.00 in0.0 mm
09:41 AM 43.7°F6.5°C 37.9°F3.3°C 80% 0.4 mph 0.6 kmh 0.9 mph1.4 kmh 29.93 in1013.5 mb 0.00 in0.0 mm 0.00 in0.0 mm 0.00 in0.0 mm
09:39 AM 43.7°F6.5°C 37.9°F3.3°C 80% 1.3 mph NE2.1 kmh NE 1.9 mph3.1 kmh 29.92 in1013.2 mb 0.00 in0.0 mm 0.00 in0.0 mm 0.00 in0.0 mm
09:37 AM 43.9°F6.6°C 37.8°F3.2°C 79% 1.9 mph NE3.1 kmh NE 2.3 mph3.7 kmh 29.92 in1013.2 mb 0.00 in0.0 mm 0.00 in0.0 mm 0.00 in0.0 mm
09:35 AM 43.9°F6.6°C 37.8°F3.2°C 79% 0.9 mph NE1.4 kmh NE 1.3 mph2.1 kmh 29.92 in1013.2 mb 0.00 in0.0 mm 0.00 in0.0 mm 0.00 in0.0 mm
09:33 AM 44.1°F6.7°C 38.0°F3.3°C 79% 0.9 mph NE1.4 kmh NE 1.3 mph2.1 kmh 29.92 in1013.2 mb 0.00 in0.0 mm 0.00 in0.0 mm 0.00 in0.0 mm
09:31 AM 44.1°F6.7°C 38.0°F3.3°C 79% 0.4 mph NE0.6 kmh NE 0.9 mph1.4 kmh 29.92 in1013.2 mb 0.00 in0.0 mm 0.00 in0.0 mm 0.00 in0.0 mm
09:29 AM 44.2°F6.8°C 38.2°F3.4°C 79% 0.4 mph NE0.6 kmh NE 0.9 mph1.4 kmh 29.92 in1013.2 mb 0.00 in0.0 mm 0.00 in0.0 mm 0.00 in0.0 mm
09:27 AM 44.2°F6.8°C 38.2°F3.4°C 79% 0.9 mph NE1.4 kmh NE 1.3 mph2.1 kmh 29.92 in1013.2 mb 0.00 in0.0 mm 0.00 in0.0 mm 0.00 in0.0 mm
09:25 AM 44.4°F6.9°C 38.6°F3.7°C 80% 0.4 mph 0.6 kmh 0.9 mph1.4 kmh 29.92 in1013.2 mb 0.00 in0.0 mm 0.00 in0.0 mm 0.00 in0.0 mm
09:23 AM 44.4°F6.9°C 38.6°F3.7°C 80% Calm Calm 0.4 mph0.6 kmh 29.92 in1013.2 mb 0.00 in0.0 mm 0.00 in0.0 mm 0.00 in0.0 mm
09:21 AM 44.4°F6.9°C 38.6°F3.7°C 80% Calm Calm 0.4 mph0.6 kmh 29.92 in1013.2 mb 0.00 in0.0 mm 0.00 in0.0 mm 0.00 in0.0 mm
09:19 AM 44.4°F6.9°C 38.6°F3.7°C 80% Calm Calm 0.4 mph0.6 kmh 29.92 in1013.2 mb 0.00 in0.0 mm 0.00 in0.0 mm 0.00 in0.0 mm
09:17 AM 44.2°F6.8°C 38.5°F3.6°C 80% Calm Calm -- 29.92 in1013.2 mb 0.00 in0.0 mm 0.00 in0.0 mm 0.00 in0.0 mm
09:15 AM 44.1°F6.7°C 38.3°F3.5°C 80% Calm Calm -- 29.91 in1012.9 mb 0.00 in0.0 mm 0.00 in0.0 mm 0.00 in0.0 mm
09:13 AM 44.1°F6.7°C 38.3°F3.5°C 80% Calm Calm -- 29.92 in1013.2 mb 0.00 in0.0 mm 0.00 in0.0 mm 0.00 in0.0 mm
09:11 AM 43.9°F6.6°C 38.1°F3.4°C 80% Calm Calm -- 29.92 in1013.2 mb 0.00 in0.0 mm 0.00 in0.0 mm 0.00 in0.0 mm
09:09 AM 43.9°F6.6°C 38.1°F3.4°C 80% Calm Calm -- 29.92 in1013.2 mb 0.00 in0.0 mm 0.00 in0.0 mm 0.00 in0.0 mm
09:07 AM 43.7°F6.5°C 37.9°F3.3°C 80% Calm Calm 0.4 mph0.6 kmh 29.92 in1013.2 mb 0.00 in0.0 mm 0.00 in0.0 mm 0.00 in0.0 mm
09:05 AM 43.5°F6.4°C 37.8°F3.2°C 80% Calm Calm -- 29.92 in1013.2 mb 0.00 in0.0 mm 0.00 in0.0 mm 0.00 in0.0 mm
09:03 AM 43.3°F6.3°C 37.6°F3.1°C 80% Calm Calm -- 29.92 in1013.2 mb 0.00 in0.0 mm 0.00 in0.0 mm 0.00 in0.0 mm
09:01 AM 43.2°F6.2°C 37.4°F3.0°C 80% Calm Calm -- 29.91 in1012.9 mb 0.00 in0.0 mm 0.00 in0.0 mm 0.00 in0.0 mm
08:59 AM 42.8°F6.0°C 37.1°F2.8°C 80% Calm Calm -- 29.91 in1012.9 mb 0.00 in0.0 mm 0.00 in0.0 mm 0.00 in0.0 mm
08:57 AM 42.6°F5.9°C 36.9°F2.7°C 80% Calm Calm -- 29.92 in1013.2 mb 0.00 in0.0 mm 0.00 in0.0 mm 0.00 in0.0 mm
08:55 AM 42.4°F5.8°C 36.7°F2.6°C 80% Calm Calm -- 29.92 in1013.2 mb 0.00 in0.0 mm 0.00 in0.0 mm 0.00 in0.0 mm
08:53 AM 42.3°F5.7°C 36.5°F2.5°C 80% Calm Calm -- 29.92 in1013.2 mb 0.00 in0.0 mm 0.00 in0.0 mm 0.00 in0.0 mm
08:51 AM 42.1°F5.6°C 36.4°F2.4°C 80% Calm Calm -- 29.91 in1012.9 mb 0.00 in0.0 mm 0.00 in0.0 mm 0.00 in0.0 mm
08:49 AM 41.9°F5.5°C 36.2°F2.3°C 80% Calm Calm 0.4 mph0.6 kmh 29.92 in1013.2 mb 0.00 in0.0 mm 0.00 in0.0 mm 0.00 in0.0 mm
08:47 AM 41.7°F5.4°C 36.0°F2.2°C 80% 0.4 mph SW0.6 kmh SW 0.9 mph1.4 kmh 29.91 in1012.9 mb 0.00 in0.0 mm 0.00 in0.0 mm 0.00 in0.0 mm
08:45 AM 41.7°F5.4°C 36.0°F2.2°C 80% 0.9 mph SW1.4 kmh SW 1.3 mph2.1 kmh 29.91 in1012.9 mb 0.00 in0.0 mm 0.00 in0.0 mm 0.00 in0.0 mm
08:43 AM 41.5°F5.3°C 35.8°F2.1°C 80% 0.9 mph SW1.4 kmh SW 1.3 mph2.1 kmh 29.91 in1012.9 mb 0.00 in0.0 mm 0.00 in0.0 mm 0.00 in0.0 mm
08:41 AM 41.5°F5.3°C 35.8°F2.1°C 80% 0.9 mph SW1.4 kmh SW 1.3 mph2.1 kmh 29.91 in1012.9 mb 0.00 in0.0 mm 0.00 in0.0 mm 0.00 in0.0 mm
08:39 AM 41.4°F5.2°C 35.7°F2.1°C 80% 1.3 mph SW2.1 kmh SW 1.9 mph3.1 kmh 29.91 in1012.9 mb 0.00 in0.0 mm 0.00 in0.0 mm 0.00 in0.0 mm
08:37 AM 41.4°F5.2°C 36.0°F2.2°C 81% 0.9 mph S1.4 kmh S 1.9 mph3.1 kmh 29.91 in1012.9 mb 0.00 in0.0 mm 0.00 in0.0 mm 0.00 in0.0 mm
08:35 AM 41.2°F5.1°C 35.8°F2.1°C 81% 0.4 mph S0.6 kmh S 0.9 mph1.4 kmh 29.91 in1012.9 mb 0.00 in0.0 mm 0.00 in0.0 mm 0.00 in0.0 mm
08:33 AM 41.2°F5.1°C 35.8°F2.1°C 81% 0.9 mph S1.4 kmh S 1.3 mph2.1 kmh 29.91 in1012.9 mb 0.00 in0.0 mm 0.00 in0.0 mm 0.00 in0.0 mm
08:31 AM 41.0°F5.0°C 35.6°F2.0°C 81% 0.9 mph SW1.4 kmh SW 1.3 mph2.1 kmh 29.91 in1012.9 mb 0.00 in0.0 mm 0.00 in0.0 mm 0.00 in0.0 mm
08:29 AM 40.8°F4.9°C 35.5°F1.9°C 81% 1.9 mph S3.1 kmh S 2.3 mph3.7 kmh 29.91 in1012.9 mb 0.00 in0.0 mm 0.00 in0.0 mm 0.00 in0.0 mm
08:27 AM 40.6°F4.8°C 35.6°F2.0°C 82% 1.3 mph W2.1 kmh W 1.9 mph3.1 kmh 29.91 in1012.9 mb 0.00 in0.0 mm 0.00 in0.0 mm 0.00 in0.0 mm
08:25 AM 40.5°F4.7°C 35.4°F1.9°C 82% 1.3 mph SW2.1 kmh SW 1.9 mph3.1 kmh 29.91 in1012.9 mb 0.00 in0.0 mm 0.00 in0.0 mm 0.00 in0.0 mm
08:23 AM 40.3°F4.6°C 35.2°F1.8°C 82% 0.9 mph S1.4 kmh S 1.3 mph2.1 kmh 29.91 in1012.9 mb 0.00 in0.0 mm 0.00 in0.0 mm 0.00 in0.0 mm
08:21 AM 40.3°F4.6°C 35.2°F1.8°C 82% 1.9 mph SSW3.1 kmh SSW 2.7 mph4.3 kmh 29.91 in1012.9 mb 0.00 in0.0 mm 0.00 in0.0 mm 0.00 in0.0 mm
08:19 AM 40.1°F4.5°C 35.1°F1.7°C 82% 1.3 mph S2.1 kmh S 2.3 mph3.7 kmh 29.91 in1012.9 mb 0.00 in0.0 mm 0.00 in0.0 mm 0.00 in0.0 mm
08:17 AM 40.1°F4.5°C 35.1°F1.7°C 82% 1.3 mph S2.1 kmh S 2.3 mph3.7 kmh 29.91 in1012.9 mb 0.00 in0.0 mm 0.00 in0.0 mm 0.00 in0.0 mm
08:15 AM 39.9°F4.4°C 34.9°F1.6°C 82% 1.3 mph SW2.1 kmh SW 2.3 mph3.7 kmh 29.91 in1012.9 mb 0.00 in0.0 mm 0.00 in0.0 mm 0.00 in0.0 mm
08:13 AM 39.9°F4.4°C 34.9°F1.6°C 82% 1.3 mph SSW2.1 kmh SSW 1.9 mph3.1 kmh 29.91 in1012.9 mb 0.00 in0.0 mm 0.00 in0.0 mm 0.00 in0.0 mm
08:11 AM 39.9°F4.4°C 34.9°F1.6°C 82% 0.9 mph SSW1.4 kmh SSW 1.9 mph3.1 kmh 29.91 in1012.9 mb 0.00 in0.0 mm 0.00 in0.0 mm 0.00 in0.0 mm
08:09 AM 39.9°F4.4°C 35.2°F1.8°C 83% 1.3 mph SW2.1 kmh SW 2.3 mph3.7 kmh 29.91 in1012.9 mb 0.00 in0.0 mm 0.00 in0.0 mm 0.00 in0.0 mm
08:07 AM 39.9°F4.4°C 35.2°F1.8°C 83% 0.9 mph SW1.4 kmh SW 1.3 mph2.1 kmh 29.91 in1012.9 mb 0.00 in0.0 mm 0.00 in0.0 mm 0.00 in0.0 mm
08:05 AM 39.9°F4.4°C 35.2°F1.8°C 83% 0.9 mph SW1.4 kmh SW 1.3 mph2.1 kmh 29.91 in1012.9 mb 0.00 in0.0 mm 0.00 in0.0 mm 0.00 in0.0 mm
08:03 AM 39.9°F4.4°C 35.2°F1.8°C 83% 0.9 mph SW1.4 kmh SW 1.3 mph2.1 kmh 29.91 in1012.9 mb 0.00 in0.0 mm 0.00 in0.0 mm 0.00 in0.0 mm
08:01 AM 39.9°F4.4°C 35.2°F1.8°C 83% 0.9 mph SW1.4 kmh SW 1.3 mph2.1 kmh 29.91 in1012.9 mb 0.00 in0.0 mm 0.00 in0.0 mm 0.00 in0.0 mm
07:59 AM 39.9°F4.4°C 35.2°F1.8°C 83% 0.9 mph SW1.4 kmh SW 1.9 mph3.1 kmh 29.91 in1012.9 mb 0.00 in0.0 mm 0.00 in0.0 mm 0.00 in0.0 mm
07:57 AM 39.7°F4.3°C 35.0°F1.7°C 83% 0.9 mph SW1.4 kmh SW 1.3 mph2.1 kmh 29.91 in1012.9 mb 0.00 in0.0 mm 0.00 in0.0 mm 0.00 in0.0 mm
07:55 AM 39.7°F4.3°C 35.0°F1.7°C 83% 0.9 mph SW1.4 kmh SW 1.3 mph2.1 kmh 29.91 in1012.9 mb 0.00 in0.0 mm 0.00 in0.0 mm 0.00 in0.0 mm
07:53 AM 39.7°F4.3°C 35.0°F1.7°C 83% 0.9 mph SW1.4 kmh SW 1.3 mph2.1 kmh 29.91 in1012.9 mb 0.00 in0.0 mm 0.00 in0.0 mm 0.00 in0.0 mm
07:51 AM 39.7°F4.3°C 35.0°F1.7°C 83% 1.3 mph S2.1 kmh S 1.9 mph3.1 kmh 29.91 in1012.9 mb 0.00 in0.0 mm 0.00 in0.0 mm 0.00 in0.0 mm
07:49 AM 39.7°F4.3°C 35.0°F1.7°C 83% 0.9 mph SW1.4 kmh SW 1.9 mph3.1 kmh 29.91 in1012.9 mb 0.00 in0.0 mm 0.00 in0.0 mm 0.00 in0.0 mm
07:47 AM 39.7°F4.3°C 35.0°F1.7°C 83% 1.3 mph SW2.1 kmh SW 1.9 mph3.1 kmh 29.91 in1012.9 mb 0.00 in0.0 mm 0.00 in0.0 mm 0.00 in0.0 mm
07:45 AM 39.7°F4.3°C 35.0°F1.7°C 83% 1.3 mph SW2.1 kmh SW 1.9 mph3.1 kmh 29.91 in1012.9 mb 0.00 in0.0 mm 0.00 in0.0 mm 0.00 in0.0 mm
07:43 AM 39.7°F4.3°C 35.0°F1.7°C 83% 1.9 mph SW3.1 kmh SW 1.9 mph3.1 kmh 29.91 in1012.9 mb 0.00 in0.0 mm 0.00 in0.0 mm 0.00 in0.0 mm
07:41 AM 39.7°F4.3°C 35.0°F1.7°C 83% 0.9 mph SW1.4 kmh SW 1.9 mph3.1 kmh 29.91 in1012.9 mb 0.00 in0.0 mm 0.00 in0.0 mm 0.00 in0.0 mm
07:39 AM 39.7°F4.3°C 35.0°F1.7°C 83% 1.3 mph S2.1 kmh S 1.9 mph3.1 kmh 29.91 in1012.9 mb 0.00 in0.0 mm 0.00 in0.0 mm 0.00 in0.0 mm
07:37 AM 39.7°F4.3°C 35.0°F1.7°C 83% 1.3 mph SW2.1 kmh SW 1.9 mph3.1 kmh 29.91 in1012.9 mb 0.00 in0.0 mm 0.00 in0.0 mm 0.00 in0.0 mm
07:35 AM 39.7°F4.3°C 35.0°F1.7°C 83% 0.9 mph S1.4 kmh S 1.9 mph3.1 kmh 29.91 in1012.9 mb 0.00 in0.0 mm 0.00 in0.0 mm 0.00 in0.0 mm
07:33 AM 39.6°F4.2°C 34.8°F1.6°C 83% 0.9 mph SW1.4 kmh SW 1.3 mph2.1 kmh 29.91 in1012.9 mb 0.00 in0.0 mm 0.00 in0.0 mm 0.00 in0.0 mm
07:31 AM 39.6°F4.2°C 34.8°F1.6°C 83% 1.3 mph SW2.1 kmh SW 1.9 mph3.1 kmh 29.91 in1012.9 mb 0.00 in0.0 mm 0.00 in0.0 mm 0.00 in0.0 mm
07:29 AM 39.6°F4.2°C 34.8°F1.6°C 83% 1.9 mph SW3.1 kmh SW 2.3 mph3.7 kmh 29.90 in1012.5 mb 0.00 in0.0 mm 0.00 in0.0 mm 0.00 in0.0 mm
07:27 AM 39.6°F4.2°C 34.8°F1.6°C 83% 1.3 mph S2.1 kmh S 1.9 mph3.1 kmh 29.90 in1012.5 mb 0.00 in0.0 mm 0.00 in0.0 mm 0.00 in0.0 mm
07:25 AM 39.4°F4.1°C 34.7°F1.5°C 83% 1.3 mph SW2.1 kmh SW 2.3 mph3.7 kmh 29.90 in1012.5 mb 0.00 in0.0 mm 0.00 in0.0 mm 0.00 in0.0 mm
07:23 AM 39.4°F4.1°C 34.7°F1.5°C 83% 1.3 mph S2.1 kmh S 1.9 mph3.1 kmh 29.91 in1012.9 mb 0.00 in0.0 mm 0.00 in0.0 mm 0.00 in0.0 mm
07:21 AM 39.4°F4.1°C 34.7°F1.5°C 83% 0.9 mph W1.4 kmh W 1.9 mph3.1 kmh 29.90 in1012.5 mb 0.00 in0.0 mm 0.00 in0.0 mm 0.00 in0.0 mm
07:19 AM 39.4°F4.1°C 34.7°F1.5°C 83% 1.3 mph S2.1 kmh S 1.9 mph3.1 kmh 29.90 in1012.5 mb 0.00 in0.0 mm 0.00 in0.0 mm 0.00 in0.0 mm
07:17 AM 39.4°F4.1°C 34.7°F1.5°C 83% 1.3 mph S2.1 kmh S 1.9 mph3.1 kmh 29.90 in1012.5 mb 0.00 in0.0 mm 0.00 in0.0 mm 0.00 in0.0 mm
07:15 AM 39.4°F4.1°C 34.7°F1.5°C 83% 1.3 mph W2.1 kmh W 1.9 mph3.1 kmh 29.90 in1012.5 mb 0.00 in0.0 mm 0.00 in0.0 mm 0.00 in0.0 mm
07:13 AM 39.4°F4.1°C 34.4°F1.3°C 82% 1.3 mph SW2.1 kmh SW 1.9 mph3.1 kmh 29.90 in1012.5 mb 0.00 in0.0 mm 0.00 in0.0 mm 0.00 in0.0 mm
07:11 AM 39.4°F4.1°C 34.4°F1.3°C 82% 1.3 mph SW2.1 kmh SW 1.9 mph3.1 kmh 29.90 in1012.5 mb 0.00 in0.0 mm 0.00 in0.0 mm 0.00 in0.0 mm
07:09 AM 39.4°F4.1°C 34.4°F1.3°C 82% 1.9 mph SW3.1 kmh SW 2.3 mph3.7 kmh 29.90 in1012.5 mb 0.00 in0.0 mm 0.00 in0.0 mm 0.00 in0.0 mm
07:07 AM 39.4°F4.1°C 34.4°F1.3°C 82% 0.9 mph S1.4 kmh S 1.9 mph3.1 kmh 29.90 in1012.5 mb 0.00 in0.0 mm 0.00 in0.0 mm 0.00 in0.0 mm
07:05 AM 39.4°F4.1°C 34.4°F1.3°C 82% 0.9 mph SW1.4 kmh SW 1.9 mph3.1 kmh 29.90 in1012.5 mb 0.00 in0.0 mm 0.00 in0.0 mm 0.00 in0.0 mm
07:03 AM 39.4°F4.1°C 34.4°F1.3°C 82% 0.9 mph S1.4 kmh S 1.3 mph2.1 kmh 29.90 in1012.5 mb 0.00 in0.0 mm 0.00 in0.0 mm 0.00 in0.0 mm
07:01 AM 39.6°F4.2°C 34.8°F1.6°C 83% 1.3 mph S2.1 kmh S 2.3 mph3.7 kmh 29.90 in1012.5 mb 0.00 in0.0 mm 0.00 in0.0 mm 0.00 in0.0 mm
06:59 AM 39.6°F4.2°C 34.8°F1.6°C 83% 0.9 mph S1.4 kmh S 1.9 mph3.1 kmh 29.90 in1012.5 mb 0.00 in0.0 mm 0.00 in0.0 mm 0.00 in0.0 mm
06:57 AM 39.6°F4.2°C 34.8°F1.6°C 83% 1.3 mph W2.1 kmh W 1.9 mph3.1 kmh 29.90 in1012.5 mb 0.00 in0.0 mm 0.00 in0.0 mm 0.00 in0.0 mm
06:55 AM 39.4°F4.1°C 34.4°F1.3°C 82% 0.9 mph S1.4 kmh S 1.9 mph3.1 kmh 29.90 in1012.5 mb 0.00 in0.0 mm 0.00 in0.0 mm 0.00 in0.0 mm
06:53 AM 39.4°F4.1°C 34.4°F1.3°C 82% 1.3 mph S2.1 kmh S 1.9 mph3.1 kmh 29.90 in1012.5 mb 0.00 in0.0 mm 0.00 in0.0 mm 0.00 in0.0 mm
06:51 AM 39.2°F4.0°C 34.2°F1.2°C 82% 0.9 mph S1.4 kmh S 1.9 mph3.1 kmh 29.90 in1012.5 mb 0.00 in0.0 mm 0.00 in0.0 mm 0.00 in0.0 mm
06:49 AM 39.2°F4.0°C 34.2°F1.2°C 82% 1.3 mph SSW2.1 kmh SSW 2.3 mph3.7 kmh 29.90 in1012.5 mb 0.00 in0.0 mm 0.00 in0.0 mm 0.00 in0.0 mm
06:47 AM 39.2°F4.0°C 34.2°F1.2°C 82% 1.9 mph SW3.1 kmh SW 2.3 mph3.7 kmh 29.90 in1012.5 mb 0.00 in0.0 mm 0.00 in0.0 mm 0.00 in0.0 mm
06:45 AM 39.4°F4.1°C 34.4°F1.3°C 82% 1.3 mph WSW2.1 kmh WSW 1.3 mph2.1 kmh 29.90 in1012.5 mb 0.00 in0.0 mm 0.00 in0.0 mm 0.00 in0.0 mm
06:43 AM 39.4°F4.1°C 34.4°F1.3°C 82% 0.9 mph SW1.4 kmh SW 1.9 mph3.1 kmh 29.90 in1012.5 mb 0.00 in0.0 mm 0.00 in0.0 mm 0.00 in0.0 mm
06:41 AM 39.4°F4.1°C 34.4°F1.3°C 82% 1.3 mph NW2.1 kmh NW 1.9 mph3.1 kmh 29.90 in1012.5 mb 0.00 in0.0 mm 0.00 in0.0 mm 0.00 in0.0 mm
06:39 AM 39.4°F4.1°C 34.4°F1.3°C 82% 0.9 mph SW1.4 kmh SW 1.9 mph3.1 kmh 29.90 in1012.5 mb 0.00 in0.0 mm 0.00 in0.0 mm 0.00 in0.0 mm
06:37 AM 39.4°F4.1°C 34.4°F1.3°C 82% 1.3 mph SW2.1 kmh SW 1.9 mph3.1 kmh 29.90 in1012.5 mb 0.00 in0.0 mm 0.00 in0.0 mm 0.00 in0.0 mm
06:35 AM 39.4°F4.1°C 34.4°F1.3°C 82% 0.9 mph S1.4 kmh S 1.3 mph2.1 kmh 29.90 in1012.5 mb 0.00 in0.0 mm 0.00 in0.0 mm 0.00 in0.0 mm
06:33 AM 39.4°F4.1°C 34.4°F1.3°C 82% 1.3 mph SW2.1 kmh SW 1.9 mph3.1 kmh 29.89 in1012.2 mb 0.00 in0.0 mm 0.00 in0.0 mm 0.00 in0.0 mm
06:31 AM 39.4°F4.1°C 34.4°F1.3°C 82% 0.9 mph SW1.4 kmh SW 1.3 mph2.1 kmh 29.90 in1012.5 mb 0.00 in0.0 mm 0.00 in0.0 mm 0.00 in0.0 mm
06:29 AM 39.4°F4.1°C 34.4°F1.3°C 82% 1.3 mph W2.1 kmh W 1.9 mph3.1 kmh 29.89 in1012.2 mb 0.00 in0.0 mm 0.00 in0.0 mm 0.00 in0.0 mm
06:27 AM 39.4°F4.1°C 34.4°F1.3°C 82% 0.9 mph S1.4 kmh S 1.3 mph2.1 kmh 29.89 in1012.2 mb 0.00 in0.0 mm 0.00 in0.0 mm 0.00 in0.0 mm
06:25 AM 39.4°F4.1°C 34.4°F1.3°C 82% 1.3 mph SW2.1 kmh SW 1.9 mph3.1 kmh 29.90 in1012.5 mb 0.00 in0.0 mm 0.00 in0.0 mm 0.00 in0.0 mm
06:23 AM 39.4°F4.1°C 34.4°F1.3°C 82% 0.9 mph SW1.4 kmh SW 1.3 mph2.1 kmh 29.89 in1012.2 mb 0.00 in0.0 mm 0.00 in0.0 mm 0.00 in0.0 mm
06:21 AM 39.4°F4.1°C 34.4°F1.3°C 82% 0.9 mph SW1.4 kmh SW 1.3 mph2.1 kmh 29.90 in1012.5 mb 0.00 in0.0 mm 0.00 in0.0 mm 0.00 in0.0 mm
06:19 AM 39.4°F4.1°C 34.4°F1.3°C 82% 0.9 mph WSW1.4 kmh WSW 1.3 mph2.1 kmh 29.89 in1012.2 mb 0.00 in0.0 mm 0.00 in0.0 mm 0.00 in0.0 mm
06:17 AM 39.4°F4.1°C 34.4°F1.3°C 82% 0.9 mph S1.4 kmh S 1.3 mph2.1 kmh 29.90 in1012.5 mb 0.00 in0.0 mm 0.00 in0.0 mm 0.00 in0.0 mm
06:15 AM 39.4°F4.1°C 34.0°F1.1°C 81% 0.9 mph SW1.4 kmh SW 1.3 mph2.1 kmh 29.89 in1012.2 mb 0.00 in0.0 mm 0.00 in0.0 mm 0.00 in0.0 mm
06:13 AM 39.4°F4.1°C 34.0°F1.1°C 81% 0.4 mph SW0.6 kmh SW 0.9 mph1.4 kmh 29.90 in1012.5 mb 0.00 in0.0 mm 0.00 in0.0 mm 0.00 in0.0 mm
06:11 AM 39.4°F4.1°C 34.0°F1.1°C 81% 0.4 mph W0.6 kmh W 0.4 mph0.6 kmh 29.90 in1012.5 mb 0.00 in0.0 mm 0.00 in0.0 mm 0.00 in0.0 mm
06:09 AM 39.2°F4.0°C 33.9°F1.1°C 81% Calm Calm 0.4 mph0.6 kmh 29.90 in1012.5 mb 0.00 in0.0 mm 0.00 in0.0 mm 0.00 in0.0 mm
06:07 AM 39.2°F4.0°C 33.9°F1.1°C 81% 1.9 mph SW3.1 kmh SW 2.3 mph3.7 kmh 29.89 in1012.2 mb 0.00 in0.0 mm 0.00 in0.0 mm 0.00 in0.0 mm
06:05 AM 39.4°F4.1°C 34.0°F1.1°C 81% 1.3 mph SW2.1 kmh SW 1.9 mph3.1 kmh 29.89 in1012.2 mb 0.00 in0.0 mm 0.00 in0.0 mm 0.00 in0.0 mm
06:03 AM 39.4°F4.1°C 34.0°F1.1°C 81% 1.3 mph W2.1 kmh W 1.9 mph3.1 kmh 29.89 in1012.2 mb 0.00 in0.0 mm 0.00 in0.0 mm 0.00 in0.0 mm
06:01 AM 39.4°F4.1°C 34.0°F1.1°C 81% 1.9 mph W3.1 kmh W 2.3 mph3.7 kmh 29.90 in1012.5 mb 0.00 in0.0 mm 0.00 in0.0 mm 0.00 in0.0 mm
05:59 AM 39.6°F4.2°C 34.2°F1.2°C 81% 1.3 mph SW2.1 kmh SW 1.9 mph3.1 kmh 29.89 in1012.2 mb 0.00 in0.0 mm 0.00 in0.0 mm 0.00 in0.0 mm
05:57 AM 39.6°F4.2°C 34.2°F1.2°C 81% 0.9 mph SW1.4 kmh SW 1.9 mph3.1 kmh 29.89 in1012.2 mb 0.00 in0.0 mm 0.00 in0.0 mm 0.00 in0.0 mm
05:55 AM 39.6°F4.2°C 34.2°F1.2°C 81% 0.9 mph W1.4 kmh W 1.3 mph2.1 kmh 29.89 in1012.2 mb 0.00 in0.0 mm 0.00 in0.0 mm 0.00 in0.0 mm
05:53 AM 39.4°F4.1°C 34.0°F1.1°C 81% 1.3 mph SW2.1 kmh SW 1.9 mph3.1 kmh 29.89 in1012.2 mb 0.00 in0.0 mm 0.00 in0.0 mm 0.00 in0.0 mm
05:51 AM 39.4°F4.1°C 34.0°F1.1°C 81% 1.9 mph WSW3.1 kmh WSW 2.7 mph4.3 kmh 29.89 in1012.2 mb 0.00 in0.0 mm 0.00 in0.0 mm 0.00 in0.0 mm
05:49 AM 39.4°F4.1°C 34.0°F1.1°C 81% 1.3 mph SW2.1 kmh SW 2.3 mph3.7 kmh 29.89 in1012.2 mb 0.00 in0.0 mm 0.00 in0.0 mm 0.00 in0.0 mm
05:47 AM 39.4°F4.1°C 34.0°F1.1°C 81% 1.9 mph S3.1 kmh S 2.3 mph3.7 kmh 29.89 in1012.2 mb 0.00 in0.0 mm 0.00 in0.0 mm 0.00 in0.0 mm
05:45 AM 39.6°F4.2°C 34.2°F1.2°C 81% 1.3 mph W2.1 kmh W 1.9 mph3.1 kmh 29.89 in1012.2 mb 0.00 in0.0 mm 0.00 in0.0 mm 0.00 in0.0 mm
05:43 AM 39.6°F4.2°C 34.2°F1.2°C 81% 1.3 mph SW2.1 kmh SW 2.3 mph3.7 kmh 29.90 in1012.5 mb 0.00 in0.0 mm 0.00 in0.0 mm 0.00 in0.0 mm
05:41 AM 39.6°F4.2°C 34.2°F1.2°C 81% 1.9 mph W3.1 kmh W 2.3 mph3.7 kmh 29.89 in1012.2 mb 0.00 in0.0 mm 0.00 in0.0 mm 0.00 in0.0 mm
05:39 AM 39.6°F4.2°C 34.2°F1.2°C 81% 1.9 mph SW3.1 kmh SW 2.7 mph4.3 kmh 29.89 in1012.2 mb 0.00 in0.0 mm 0.00 in0.0 mm 0.00 in0.0 mm
05:37 AM 39.6°F4.2°C 34.2°F1.2°C 81% 1.3 mph E2.1 kmh E 2.3 mph3.7 kmh 29.89 in1012.2 mb 0.00 in0.0 mm 0.00 in0.0 mm 0.00 in0.0 mm
05:35 AM 39.6°F4.2°C 34.2°F1.2°C 81% 0.9 mph SSW1.4 kmh SSW 1.9 mph3.1 kmh 29.90 in1012.5 mb 0.00 in0.0 mm 0.00 in0.0 mm 0.00 in0.0 mm
05:33 AM 39.6°F4.2°C 34.2°F1.2°C 81% 1.3 mph SW2.1 kmh SW 1.9 mph3.1 kmh 29.89 in1012.2 mb 0.00 in0.0 mm 0.00 in0.0 mm 0.00 in0.0 mm
05:31 AM 39.6°F4.2°C 34.2°F1.2°C 81% 1.3 mph W2.1 kmh W 2.3 mph3.7 kmh 29.89 in1012.2 mb 0.00 in0.0 mm 0.00 in0.0 mm 0.00 in0.0 mm
05:29 AM 39.6°F4.2°C 34.2°F1.2°C 81% 1.3 mph SW2.1 kmh SW 1.9 mph3.1 kmh 29.90 in1012.5 mb 0.00 in0.0 mm 0.00 in0.0 mm 0.00 in0.0 mm
05:27 AM 39.6°F4.2°C 34.2°F1.2°C 81% 1.3 mph SW2.1 kmh SW 1.9 mph3.1 kmh 29.90 in1012.5 mb 0.00 in0.0 mm 0.00 in0.0 mm 0.00 in0.0 mm
05:25 AM 39.6°F4.2°C 34.2°F1.2°C 81% 1.3 mph SW2.1 kmh SW 1.9 mph3.1 kmh 29.90 in1012.5 mb 0.00 in0.0 mm 0.00 in0.0 mm 0.00 in0.0 mm
05:23 AM 39.6°F4.2°C 33.9°F1.1°C 80% 0.9 mph SSW1.4 kmh SSW 1.3 mph2.1 kmh 29.89 in1012.2 mb 0.00 in0.0 mm 0.00 in0.0 mm 0.00 in0.0 mm
05:21 AM 39.6°F4.2°C 33.9°F1.1°C 80% 1.3 mph S2.1 kmh S 2.3 mph3.7 kmh 29.89 in1012.2 mb 0.00 in0.0 mm 0.00 in0.0 mm 0.00 in0.0 mm
05:19 AM 39.6°F4.2°C 33.9°F1.1°C 80% 0.4 mph W0.6 kmh W 0.9 mph1.4 kmh 29.90 in1012.5 mb 0.00 in0.0 mm 0.00 in0.0 mm 0.00 in0.0 mm
05:17 AM 39.6°F4.2°C 33.9°F1.1°C 80% 1.3 mph SSW2.1 kmh SSW 2.3 mph3.7 kmh 29.90 in1012.5 mb 0.00 in0.0 mm 0.00 in0.0 mm 0.00 in0.0 mm
05:15 AM 39.6°F4.2°C 33.9°F1.1°C 80% 1.9 mph S3.1 kmh S 2.3 mph3.7 kmh 29.89 in1012.2 mb 0.00 in0.0 mm 0.00 in0.0 mm 0.00 in0.0 mm
05:13 AM 39.6°F4.2°C 33.9°F1.1°C 80% 0.9 mph SW1.4 kmh SW 1.9 mph3.1 kmh 29.89 in1012.2 mb 0.00 in0.0 mm 0.00 in0.0 mm 0.00 in0.0 mm
05:11 AM 39.6°F4.2°C 33.9°F1.1°C 80% 1.9 mph S3.1 kmh S 2.3 mph3.7 kmh 29.90 in1012.5 mb 0.00 in0.0 mm 0.00 in0.0 mm 0.00 in0.0 mm
05:09 AM 39.7°F4.3°C 34.1°F1.2°C 80% 1.3 mph S2.1 kmh S 1.9 mph3.1 kmh 29.89 in1012.2 mb 0.00 in0.0 mm 0.00 in0.0 mm 0.00 in0.0 mm
05:07 AM 39.7°F4.3°C 34.1°F1.2°C 80% 0.9 mph S1.4 kmh S 1.3 mph2.1 kmh 29.89 in1012.2 mb 0.00 in0.0 mm 0.00 in0.0 mm 0.00 in0.0 mm
05:05 AM 39.7°F4.3°C 34.1°F1.2°C 80% 1.3 mph SW2.1 kmh SW 1.9 mph3.1 kmh 29.90 in1012.5 mb 0.00 in0.0 mm 0.00 in0.0 mm 0.00 in0.0 mm
05:03 AM 39.7°F4.3°C 34.1°F1.2°C 80% 1.3 mph S2.1 kmh S 2.3 mph3.7 kmh 29.89 in1012.2 mb 0.00 in0.0 mm 0.00 in0.0 mm 0.00 in0.0 mm
05:01 AM 39.9°F4.4°C 34.3°F1.3°C 80% 1.3 mph SW2.1 kmh SW 1.9 mph3.1 kmh 29.89 in1012.2 mb 0.00 in0.0 mm 0.00 in0.0 mm 0.00 in0.0 mm
04:59 AM 39.9°F4.4°C 34.3°F1.3°C 80% 1.3 mph S2.1 kmh S 1.3 mph2.1 kmh 29.89 in1012.2 mb 0.00 in0.0 mm 0.00 in0.0 mm 0.00 in0.0 mm
04:57 AM 40.1°F4.5°C 34.4°F1.3°C 80% 0.9 mph S1.4 kmh S 1.3 mph2.1 kmh 29.90 in1012.5 mb 0.00 in0.0 mm 0.00 in0.0 mm 0.00 in0.0 mm
04:55 AM 40.1°F4.5°C 34.4°F1.3°C 80% 0.9 mph S1.4 kmh S 1.3 mph2.1 kmh 29.90 in1012.5 mb 0.00 in0.0 mm 0.00 in0.0 mm 0.00 in0.0 mm
04:53 AM 40.1°F4.5°C 34.4°F1.3°C 80% 1.3 mph SSW2.1 kmh SSW 1.9 mph3.1 kmh 29.89 in1012.2 mb 0.00 in0.0 mm 0.00 in0.0 mm 0.00 in0.0 mm
04:51 AM 40.1°F4.5°C 34.4°F1.3°C 80% 3.2 mph SW5.1 kmh SW 3.6 mph5.8 kmh 29.90 in1012.5 mb 0.00 in0.0 mm 0.00 in0.0 mm 0.00 in0.0 mm
04:49 AM 40.1°F4.5°C 34.4°F1.3°C 80% 2.7 mph SW4.3 kmh SW 3.6 mph5.8 kmh 29.89 in1012.2 mb 0.00 in0.0 mm 0.00 in0.0 mm 0.00 in0.0 mm
04:47 AM 40.1°F4.5°C 34.4°F1.3°C 80% 1.3 mph WNW2.1 kmh WNW 1.9 mph3.1 kmh 29.90 in1012.5 mb 0.00 in0.0 mm 0.00 in0.0 mm 0.00 in0.0 mm
04:45 AM 40.1°F4.5°C 34.4°F1.3°C 80% 1.3 mph W2.1 kmh W 2.3 mph3.7 kmh 29.89 in1012.2 mb 0.00 in0.0 mm 0.00 in0.0 mm 0.00 in0.0 mm
04:43 AM 40.1°F4.5°C 34.4°F1.3°C 80% 1.9 mph SW3.1 kmh SW 2.7 mph4.3 kmh 29.90 in1012.5 mb 0.00 in0.0 mm 0.00 in0.0 mm 0.00 in0.0 mm
04:41 AM 40.1°F4.5°C 34.4°F1.3°C 80% 1.3 mph S2.1 kmh S 2.3 mph3.7 kmh 29.89 in1012.2 mb 0.00 in0.0 mm 0.00 in0.0 mm 0.00 in0.0 mm
04:39 AM 40.1°F4.5°C 34.4°F1.3°C 80% 1.9 mph SW3.1 kmh SW 2.7 mph4.3 kmh 29.90 in1012.5 mb 0.00 in0.0 mm 0.00 in0.0 mm 0.00 in0.0 mm
04:37 AM 40.3°F4.6°C 34.6°F1.4°C 80% 1.3 mph SE2.1 kmh SE 2.3 mph3.7 kmh 29.90 in1012.5 mb 0.00 in0.0 mm 0.00 in0.0 mm 0.00 in0.0 mm
04:35 AM 40.3°F4.6°C 34.6°F1.4°C 80% 1.3 mph SW2.1 kmh SW 1.9 mph3.1 kmh 29.89 in1012.2 mb 0.00 in0.0 mm 0.00 in0.0 mm 0.00 in0.0 mm
04:33 AM 40.3°F4.6°C 34.6°F1.4°C 80% 1.3 mph SW2.1 kmh SW 2.3 mph3.7 kmh 29.90 in1012.5 mb 0.00 in0.0 mm 0.00 in0.0 mm 0.00 in0.0 mm
04:31 AM 40.1°F4.5°C 34.1°F1.2°C 79% 2.3 mph SSW3.7 kmh SSW 2.7 mph4.3 kmh 29.89 in1012.2 mb 0.00 in0.0 mm 0.00 in0.0 mm 0.00 in0.0 mm
04:29 AM 40.1°F4.5°C 34.1°F1.2°C 79% 2.3 mph SE3.7 kmh SE 3.2 mph5.1 kmh 29.89 in1012.2 mb 0.00 in0.0 mm 0.00 in0.0 mm 0.00 in0.0 mm
04:27 AM 40.3°F4.6°C 34.3°F1.3°C 79% 2.7 mph S4.3 kmh S 3.6 mph5.8 kmh 29.89 in1012.2 mb 0.00 in0.0 mm 0.00 in0.0 mm 0.00 in0.0 mm
04:25 AM 40.3°F4.6°C 34.3°F1.3°C 79% 1.3 mph SW2.1 kmh SW 2.3 mph3.7 kmh 29.90 in1012.5 mb 0.00 in0.0 mm 0.00 in0.0 mm 0.00 in0.0 mm
04:23 AM 40.3°F4.6°C 34.0°F1.1°C 78% 1.3 mph S2.1 kmh S 1.9 mph3.1 kmh 29.90 in1012.5 mb 0.00 in0.0 mm 0.00 in0.0 mm 0.00 in0.0 mm
04:21 AM 40.5°F4.7°C 34.2°F1.2°C 78% 1.3 mph SW2.1 kmh SW 2.3 mph3.7 kmh 29.90 in1012.5 mb 0.00 in0.0 mm 0.00 in0.0 mm 0.00 in0.0 mm
04:19 AM 40.5°F4.7°C 34.2°F1.2°C 78% 2.7 mph SW4.3 kmh SW 3.2 mph5.1 kmh 29.90 in1012.5 mb 0.00 in0.0 mm 0.00 in0.0 mm 0.00 in0.0 mm
04:17 AM 40.6°F4.8°C 34.3°F1.3°C 78% 1.9 mph WNW3.1 kmh WNW 2.3 mph3.7 kmh 29.90 in1012.5 mb 0.00 in0.0 mm 0.00 in0.0 mm 0.00 in0.0 mm
04:15 AM 40.6°F4.8°C 34.3°F1.3°C 78% 1.3 mph W2.1 kmh W 1.9 mph3.1 kmh 29.90 in1012.5 mb 0.00 in0.0 mm 0.00 in0.0 mm 0.00 in0.0 mm
04:13 AM 40.8°F4.9°C 34.5°F1.4°C 78% 0.9 mph SW1.4 kmh SW 1.9 mph3.1 kmh 29.90 in1012.5 mb 0.00 in0.0 mm 0.00 in0.0 mm 0.00 in0.0 mm
04:11 AM 40.8°F4.9°C 34.5°F1.4°C 78% 1.3 mph W2.1 kmh W 1.9 mph3.1 kmh 29.90 in1012.5 mb 0.00 in0.0 mm 0.00 in0.0 mm 0.00 in0.0 mm
04:09 AM 40.8°F4.9°C 34.5°F1.4°C 78% 1.9 mph SW3.1 kmh SW 2.3 mph3.7 kmh 29.90 in1012.5 mb 0.00 in0.0 mm 0.00 in0.0 mm 0.00 in0.0 mm
04:07 AM 41.0°F5.0°C 34.7°F1.5°C 78% 1.9 mph SW3.1 kmh SW 2.7 mph4.3 kmh 29.90 in1012.5 mb 0.00 in0.0 mm 0.00 in0.0 mm 0.00 in0.0 mm
04:05 AM 41.0°F5.0°C 34.7°F1.5°C 78% 1.9 mph SW3.1 kmh SW 2.3 mph3.7 kmh 29.90 in1012.5 mb 0.00 in0.0 mm 0.00 in0.0 mm 0.00 in0.0 mm
04:03 AM 41.0°F5.0°C 34.7°F1.5°C 78% 1.3 mph SW2.1 kmh SW 2.3 mph3.7 kmh 29.90 in1012.5 mb 0.00 in0.0 mm 0.00 in0.0 mm 0.00 in0.0 mm
04:01 AM 41.0°F5.0°C 34.7°F1.5°C 78% 1.3 mph SSE2.1 kmh SSE 1.9 mph3.1 kmh 29.90 in1012.5 mb 0.00 in0.0 mm 0.00 in0.0 mm 0.00 in0.0 mm
03:59 AM 41.2°F5.1°C 34.9°F1.6°C 78% 1.9 mph SW3.1 kmh SW 2.3 mph3.7 kmh 29.90 in1012.5 mb 0.00 in0.0 mm 0.00 in0.0 mm 0.00 in0.0 mm
03:57 AM 41.2°F5.1°C 34.9°F1.6°C 78% 1.9 mph SW3.1 kmh SW 2.3 mph3.7 kmh 29.90 in1012.5 mb 0.00 in0.0 mm 0.00 in0.0 mm 0.00 in0.0 mm
03:55 AM 41.2°F5.1°C 34.9°F1.6°C 78% 0.9 mph SW1.4 kmh SW 1.3 mph2.1 kmh 29.90 in1012.5 mb 0.00 in0.0 mm 0.00 in0.0 mm 0.00 in0.0 mm
03:53 AM 41.2°F5.1°C 35.2°F1.8°C 79% 0.9 mph SW1.4 kmh SW 1.3 mph2.1 kmh 29.90 in1012.5 mb 0.00 in0.0 mm 0.00 in0.0 mm 0.00 in0.0 mm
03:51 AM 41.2°F5.1°C 34.9°F1.6°C 78% 0.9 mph SW1.4 kmh SW 1.9 mph3.1 kmh 29.90 in1012.5 mb 0.00 in0.0 mm 0.00 in0.0 mm 0.00 in0.0 mm
03:49 AM 41.2°F5.1°C 34.9°F1.6°C 78% 1.3 mph SW2.1 kmh SW 1.9 mph3.1 kmh 29.90 in1012.5 mb 0.00 in0.0 mm 0.00 in0.0 mm 0.00 in0.0 mm
03:47 AM 41.2°F5.1°C 34.9°F1.6°C 78% 1.3 mph SW2.1 kmh SW 1.9 mph3.1 kmh 29.90 in1012.5 mb 0.00 in0.0 mm 0.00 in0.0 mm 0.00 in0.0 mm
03:45 AM 41.2°F5.1°C 34.9°F1.6°C 78% 1.3 mph SW2.1 kmh SW 2.3 mph3.7 kmh 29.90 in1012.5 mb 0.00 in0.0 mm 0.00 in0.0 mm 0.00 in0.0 mm
03:43 AM 41.2°F5.1°C 34.9°F1.6°C 78% 1.9 mph S3.1 kmh S 2.7 mph4.3 kmh 29.90 in1012.5 mb 0.00 in0.0 mm 0.00 in0.0 mm 0.00 in0.0 mm
03:41 AM 41.2°F5.1°C 34.9°F1.6°C 78% 1.3 mph SSW2.1 kmh SSW 1.9 mph3.1 kmh 29.90 in1012.5 mb 0.00 in0.0 mm 0.00 in0.0 mm 0.00 in0.0 mm
03:39 AM 41.2°F5.1°C 35.2°F1.8°C 79% 1.3 mph SW2.1 kmh SW 1.9 mph3.1 kmh 29.90 in1012.5 mb 0.00 in0.0 mm 0.00 in0.0 mm 0.00 in0.0 mm
03:37 AM 41.2°F5.1°C 35.2°F1.8°C 79% 1.3 mph SW2.1 kmh SW 2.3 mph3.7 kmh 29.90 in1012.5 mb 0.00 in0.0 mm 0.00 in0.0 mm 0.00 in0.0 mm
03:35 AM 41.2°F5.1°C 35.2°F1.8°C 79% 0.9 mph SW1.4 kmh SW 1.3 mph2.1 kmh 29.90 in1012.5 mb 0.00 in0.0 mm 0.00 in0.0 mm 0.00 in0.0 mm
03:33 AM 41.2°F5.1°C 35.2°F1.8°C 79% 1.3 mph SW2.1 kmh SW 1.9 mph3.1 kmh 29.90 in1012.5 mb 0.00 in0.0 mm 0.00 in0.0 mm 0.00 in0.0 mm
03:31 AM 41.2°F5.1°C 35.5°F1.9°C 80% 1.3 mph S2.1 kmh S 2.3 mph3.7 kmh 29.90 in1012.5 mb 0.00 in0.0 mm 0.00 in0.0 mm 0.00 in0.0 mm
03:29 AM 41.2°F5.1°C 35.5°F1.9°C 80% 1.3 mph SW2.1 kmh SW 1.9 mph3.1 kmh 29.90 in1012.5 mb 0.00 in0.0 mm 0.00 in0.0 mm 0.00 in0.0 mm
03:27 AM 41.2°F5.1°C 35.5°F1.9°C 80% 1.3 mph SW2.1 kmh SW 1.9 mph3.1 kmh 29.90 in1012.5 mb 0.00 in0.0 mm 0.00 in0.0 mm 0.00 in0.0 mm
03:25 AM 41.2°F5.1°C 35.5°F1.9°C 80% 0.9 mph SW1.4 kmh SW 1.3 mph2.1 kmh 29.90 in1012.5 mb 0.00 in0.0 mm 0.00 in0.0 mm 0.00 in0.0 mm
03:23 AM 41.2°F5.1°C 35.5°F1.9°C 80% 1.3 mph SW2.1 kmh SW 2.3 mph3.7 kmh 29.90 in1012.5 mb 0.00 in0.0 mm 0.00 in0.0 mm 0.00 in0.0 mm
03:21 AM 41.2°F5.1°C 35.5°F1.9°C 80% 0.9 mph SSE1.4 kmh SSE 1.9 mph3.1 kmh 29.90 in1012.5 mb 0.00 in0.0 mm 0.00 in0.0 mm 0.00 in0.0 mm
03:19 AM 41.2°F5.1°C 35.5°F1.9°C 80% 0.9 mph S1.4 kmh S 1.3 mph2.1 kmh 29.91 in1012.9 mb 0.00 in0.0 mm 0.00 in0.0 mm 0.00 in0.0 mm
03:17 AM 41.2°F5.1°C 35.5°F1.9°C 80% 0.9 mph SW1.4 kmh SW 1.3 mph2.1 kmh 29.90 in1012.5 mb 0.00 in0.0 mm 0.00 in0.0 mm 0.00 in0.0 mm
03:15 AM 41.2°F5.1°C 35.8°F2.1°C 81% 0.9 mph S1.4 kmh S 1.3 mph2.1 kmh 29.90 in1012.5 mb 0.00 in0.0 mm 0.00 in0.0 mm 0.00 in0.0 mm
03:13 AM 41.2°F5.1°C 35.8°F2.1°C 81% 0.9 mph S1.4 kmh S 1.3 mph2.1 kmh 29.91 in1012.9 mb 0.00 in0.0 mm 0.00 in0.0 mm 0.00 in0.0 mm
03:11 AM 41.2°F5.1°C 35.8°F2.1°C 81% 1.3 mph SW2.1 kmh SW 1.9 mph3.1 kmh 29.91 in1012.9 mb 0.00 in0.0 mm 0.00 in0.0 mm 0.00 in0.0 mm
03:09 AM 41.2°F5.1°C 35.8°F2.1°C 81% 1.3 mph SW2.1 kmh SW 1.9 mph3.1 kmh 29.90 in1012.5 mb 0.00 in0.0 mm 0.00 in0.0 mm 0.00 in0.0 mm
03:07 AM 41.4°F5.2°C 36.0°F2.2°C 81% 0.9 mph W1.4 kmh W 1.3 mph2.1 kmh 29.91 in1012.9 mb 0.00 in0.0 mm 0.00 in0.0 mm 0.00 in0.0 mm
03:05 AM 41.4°F5.2°C 36.0°F2.2°C 81% 0.9 mph S1.4 kmh S 1.3 mph2.1 kmh 29.91 in1012.9 mb 0.00 in0.0 mm 0.00 in0.0 mm 0.00 in0.0 mm
03:03 AM 41.4°F5.2°C 36.0°F2.2°C 81% 1.3 mph NW2.1 kmh NW 1.9 mph3.1 kmh 29.90 in1012.5 mb 0.00 in0.0 mm 0.00 in0.0 mm 0.00 in0.0 mm
03:01 AM 41.4°F5.2°C 36.0°F2.2°C 81% 1.3 mph S2.1 kmh S 1.9 mph3.1 kmh 29.91 in1012.9 mb 0.00 in0.0 mm 0.00 in0.0 mm 0.00 in0.0 mm
02:59 AM 41.2°F5.1°C 35.8°F2.1°C 81% 0.9 mph SW1.4 kmh SW 1.9 mph3.1 kmh 29.91 in1012.9 mb 0.00 in0.0 mm 0.00 in0.0 mm 0.00 in0.0 mm
02:57 AM 41.2°F5.1°C 35.8°F2.1°C 81% 0.4 mph SW0.6 kmh SW 0.9 mph1.4 kmh 29.91 in1012.9 mb 0.00 in0.0 mm 0.00 in0.0 mm 0.00 in0.0 mm
02:55 AM 41.2°F5.1°C 35.8°F2.1°C 81% 0.9 mph S1.4 kmh S 1.3 mph2.1 kmh 29.91 in1012.9 mb 0.00 in0.0 mm 0.00 in0.0 mm 0.00 in0.0 mm
02:53 AM 41.2°F5.1°C 35.5°F1.9°C 80% 0.4 mph W0.6 kmh W 0.9 mph1.4 kmh 29.91 in1012.9 mb 0.00 in0.0 mm 0.00 in0.0 mm 0.00 in0.0 mm
02:51 AM 41.2°F5.1°C 35.5°F1.9°C 80% 0.9 mph SW1.4 kmh SW 1.3 mph2.1 kmh 29.91 in1012.9 mb 0.00 in0.0 mm 0.00 in0.0 mm 0.00 in0.0 mm
02:49 AM 41.0°F5.0°C 35.3°F1.8°C 80% 0.9 mph S1.4 kmh S 1.3 mph2.1 kmh 29.91 in1012.9 mb 0.00 in0.0 mm 0.00 in0.0 mm 0.00 in0.0 mm
02:47 AM 41.0°F5.0°C 35.3°F1.8°C 80% 0.4 mph SW0.6 kmh SW 0.9 mph1.4 kmh 29.91 in1012.9 mb 0.00 in0.0 mm 0.00 in0.0 mm 0.00 in0.0 mm
02:45 AM 41.0°F5.0°C 35.3°F1.8°C 80% 0.4 mph SW0.6 kmh SW 0.9 mph1.4 kmh 29.91 in1012.9 mb 0.00 in0.0 mm 0.00 in0.0 mm 0.00 in0.0 mm
02:43 AM 41.0°F5.0°C 35.3°F1.8°C 80% 0.9 mph SW1.4 kmh SW 1.9 mph3.1 kmh 29.91 in1012.9 mb 0.00 in0.0 mm 0.00 in0.0 mm 0.00 in0.0 mm
02:41 AM 41.0°F5.0°C 35.3°F1.8°C 80% 0.4 mph S0.6 kmh S 1.3 mph2.1 kmh 29.91 in1012.9 mb 0.00 in0.0 mm 0.00 in0.0 mm 0.00 in0.0 mm
02:39 AM 41.0°F5.0°C 35.3°F1.8°C 80% 0.9 mph SSW1.4 kmh SSW 1.9 mph3.1 kmh 29.91 in1012.9 mb 0.00 in0.0 mm 0.00 in0.0 mm 0.00 in0.0 mm
02:37 AM 41.0°F5.0°C 35.3°F1.8°C 80% 0.9 mph SW1.4 kmh SW 1.3 mph2.1 kmh 29.91 in1012.9 mb 0.00 in0.0 mm 0.00 in0.0 mm 0.00 in0.0 mm
02:35 AM 41.0°F5.0°C 35.3°F1.8°C 80% 0.9 mph SSW1.4 kmh SSW 1.9 mph3.1 kmh 29.91 in1012.9 mb 0.00 in0.0 mm 0.00 in0.0 mm 0.00 in0.0 mm
02:33 AM 41.0°F5.0°C 35.3°F1.8°C 80% 0.9 mph S1.4 kmh S 1.3 mph2.1 kmh 29.91 in1012.9 mb 0.00 in0.0 mm 0.00 in0.0 mm 0.00 in0.0 mm
02:31 AM 41.0°F5.0°C 35.3°F1.8°C 80% 0.4 mph E0.6 kmh E 0.9 mph1.4 kmh 29.91 in1012.9 mb 0.00 in0.0 mm 0.00 in0.0 mm 0.00 in0.0 mm
02:29 AM 41.2°F5.1°C 35.5°F1.9°C 80% 0.9 mph SW1.4 kmh SW 1.3 mph2.1 kmh 29.91 in1012.9 mb 0.00 in0.0 mm 0.00 in0.0 mm 0.00 in0.0 mm
02:27 AM 41.2°F5.1°C 35.5°F1.9°C 80% 0.9 mph S1.4 kmh S 1.3 mph2.1 kmh 29.91 in1012.9 mb 0.00 in0.0 mm 0.00 in0.0 mm 0.00 in0.0 mm
02:25 AM 41.2°F5.1°C 35.5°F1.9°C 80% 0.9 mph S1.4 kmh S 1.3 mph2.1 kmh 29.91 in1012.9 mb 0.00 in0.0 mm 0.00 in0.0 mm 0.00 in0.0 mm
02:23 AM 41.2°F5.1°C 35.5°F1.9°C 80% 0.9 mph SW1.4 kmh SW 1.3 mph2.1 kmh 29.91 in1012.9 mb 0.00 in0.0 mm 0.00 in0.0 mm 0.00 in0.0 mm
02:21 AM 41.2°F5.1°C 35.5°F1.9°C 80% 0.9 mph NW1.4 kmh NW 1.3 mph2.1 kmh 29.91 in1012.9 mb 0.00 in0.0 mm 0.00 in0.0 mm 0.00 in0.0 mm
02:19 AM 41.2°F5.1°C 35.5°F1.9°C 80% 0.4 mph S0.6 kmh S 0.9 mph1.4 kmh 29.91 in1012.9 mb 0.00 in0.0 mm 0.00 in0.0 mm 0.00 in0.0 mm
02:17 AM 41.2°F5.1°C 35.5°F1.9°C 80% 0.4 mph S0.6 kmh S 1.3 mph2.1 kmh 29.91 in1012.9 mb 0.00 in0.0 mm 0.00 in0.0 mm 0.00 in0.0 mm
02:15 AM 41.2°F5.1°C 35.5°F1.9°C 80% 0.9 mph SW1.4 kmh SW 1.3 mph2.1 kmh 29.91 in1012.9 mb 0.00 in0.0 mm 0.00 in0.0 mm 0.00 in0.0 mm
02:13 AM 41.4°F5.2°C 35.7°F2.1°C 80% 0.9 mph W1.4 kmh W 1.9 mph3.1 kmh 29.91 in1012.9 mb 0.00 in0.0 mm 0.00 in0.0 mm 0.00 in0.0 mm
02:11 AM 41.4°F5.2°C 35.7°F2.1°C 80% 0.9 mph W1.4 kmh W 1.3 mph2.1 kmh 29.91 in1012.9 mb 0.00 in0.0 mm 0.00 in0.0 mm 0.00 in0.0 mm
02:09 AM 41.4°F5.2°C 36.0°F2.2°C 81% 0.9 mph SSW1.4 kmh SSW 1.3 mph2.1 kmh 29.91 in1012.9 mb 0.00 in0.0 mm 0.00 in0.0 mm 0.00 in0.0 mm
02:07 AM 41.4°F5.2°C 36.0°F2.2°C 81% 0.9 mph SSW1.4 kmh SSW 1.3 mph2.1 kmh 29.91 in1012.9 mb 0.00 in0.0 mm 0.00 in0.0 mm 0.00 in0.0 mm
02:05 AM 41.4°F5.2°C 36.0°F2.2°C 81% 0.9 mph SSW1.4 kmh SSW 1.3 mph2.1 kmh 29.91 in1012.9 mb 0.00 in0.0 mm 0.00 in0.0 mm 0.00 in0.0 mm
02:03 AM 41.4°F5.2°C 36.0°F2.2°C 81% 0.9 mph SSW1.4 kmh SSW 1.3 mph2.1 kmh 29.91 in1012.9 mb 0.00 in0.0 mm 0.00 in0.0 mm 0.00 in0.0 mm
02:01 AM 41.4°F5.2°C 36.0°F2.2°C 81% 0.9 mph SSW1.4 kmh SSW 1.3 mph2.1 kmh 29.91 in1012.9 mb 0.00 in0.0 mm 0.00 in0.0 mm 0.00 in0.0 mm
01:59 AM 41.4°F5.2°C 36.0°F2.2°C 81% 0.9 mph SSW1.4 kmh SSW 1.3 mph2.1 kmh 29.91 in1012.9 mb 0.00 in0.0 mm 0.00 in0.0 mm 0.00 in0.0 mm
01:57 AM 41.4°F5.2°C 36.0°F2.2°C 81% 0.4 mph W0.6 kmh W 0.9 mph1.4 kmh 29.91 in1012.9 mb 0.00 in0.0 mm 0.00 in0.0 mm 0.00 in0.0 mm
01:55 AM 41.4°F5.2°C 36.0°F2.2°C 81% 0.4 mph W0.6 kmh W 0.9 mph1.4 kmh 29.91 in1012.9 mb 0.00 in0.0 mm 0.00 in0.0 mm 0.00 in0.0 mm
01:53 AM 41.4°F5.2°C 36.0°F2.2°C 81% 1.3 mph S2.1 kmh S 1.9 mph3.1 kmh 29.91 in1012.9 mb 0.00 in0.0 mm 0.00 in0.0 mm 0.00 in0.0 mm
01:51 AM 41.4°F5.2°C 36.0°F2.2°C 81% 0.9 mph SW1.4 kmh SW 1.3 mph2.1 kmh 29.91 in1012.9 mb 0.00 in0.0 mm 0.00 in0.0 mm 0.00 in0.0 mm
01:49 AM 41.4°F5.2°C 36.0°F2.2°C 81% 0.9 mph S1.4 kmh S 1.3 mph2.1 kmh 29.91 in1012.9 mb 0.00 in0.0 mm 0.00 in0.0 mm 0.00 in0.0 mm
01:47 AM 41.4°F5.2°C 36.0°F2.2°C 81% 0.4 mph SW0.6 kmh SW 0.9 mph1.4 kmh 29.91 in1012.9 mb 0.00 in0.0 mm 0.00 in0.0 mm 0.00 in0.0 mm
01:45 AM 41.4°F5.2°C 36.0°F2.2°C 81% 0.4 mph SW0.6 kmh SW 0.9 mph1.4 kmh 29.91 in1012.9 mb 0.00 in0.0 mm 0.00 in0.0 mm 0.00 in0.0 mm
01:43 AM 41.4°F5.2°C 36.0°F2.2°C 81% 0.9 mph SE1.4 kmh SE 1.3 mph2.1 kmh 29.91 in1012.9 mb 0.00 in0.0 mm 0.00 in0.0 mm 0.00 in0.0 mm
01:41 AM 41.4°F5.2°C 36.0°F2.2°C 81% 0.9 mph SSW1.4 kmh SSW 1.3 mph2.1 kmh 29.91 in1012.9 mb 0.00 in0.0 mm 0.00 in0.0 mm 0.00 in0.0 mm
01:39 AM 41.5°F5.3°C 36.2°F2.3°C 81% 0.4 mph SW0.6 kmh SW 0.9 mph1.4 kmh 29.90 in1012.5 mb 0.00 in0.0 mm 0.00 in0.0 mm 0.00 in0.0 mm
01:37 AM 41.5°F5.3°C 36.2°F2.3°C 81% 0.9 mph S1.4 kmh S 1.3 mph2.1 kmh 29.90 in1012.5 mb 0.00 in0.0 mm 0.00 in0.0 mm 0.00 in0.0 mm
01:35 AM 41.5°F5.3°C 36.2°F2.3°C 81% 0.4 mph W0.6 kmh W 0.9 mph1.4 kmh 29.90 in1012.5 mb 0.00 in0.0 mm 0.00 in0.0 mm 0.00 in0.0 mm
01:33 AM 41.5°F5.3°C 36.2°F2.3°C 81% 0.4 mph SW0.6 kmh SW 0.9 mph1.4 kmh 29.91 in1012.9 mb 0.00 in0.0 mm 0.00 in0.0 mm 0.00 in0.0 mm
01:31 AM 41.5°F5.3°C 36.2°F2.3°C 81% 0.4 mph W0.6 kmh W 1.3 mph2.1 kmh 29.90 in1012.5 mb 0.00 in0.0 mm 0.00 in0.0 mm 0.00 in0.0 mm
01:29 AM 41.5°F5.3°C 36.2°F2.3°C 81% 0.4 mph W0.6 kmh W 0.9 mph1.4 kmh 29.90 in1012.5 mb 0.00 in0.0 mm 0.00 in0.0 mm 0.00 in0.0 mm
01:27 AM 41.5°F5.3°C 36.2°F2.3°C 81% 0.9 mph SW1.4 kmh SW 0.9 mph1.4 kmh 29.91 in1012.9 mb 0.00 in0.0 mm 0.00 in0.0 mm 0.00 in0.0 mm
01:25 AM 41.5°F5.3°C 36.2°F2.3°C 81% 0.4 mph S0.6 kmh S 0.9 mph1.4 kmh 29.91 in1012.9 mb 0.00 in0.0 mm 0.00 in0.0 mm 0.00 in0.0 mm
01:23 AM 41.5°F5.3°C 36.2°F2.3°C 81% 0.9 mph S1.4 kmh S 1.3 mph2.1 kmh 29.91 in1012.9 mb 0.00 in0.0 mm 0.00 in0.0 mm 0.00 in0.0 mm
01:21 AM 41.5°F5.3°C 36.2°F2.3°C 81% 0.4 mph SW0.6 kmh SW 0.9 mph1.4 kmh 29.90 in1012.5 mb 0.00 in0.0 mm 0.00 in0.0 mm 0.00 in0.0 mm
01:19 AM 41.4°F5.2°C 36.0°F2.2°C 81% 1.3 mph SW2.1 kmh SW 1.9 mph3.1 kmh 29.90 in1012.5 mb 0.00 in0.0 mm 0.00 in0.0 mm 0.00 in0.0 mm
01:17 AM 41.4°F5.2°C 36.0°F2.2°C 81% 0.9 mph S1.4 kmh S 1.9 mph3.1 kmh 29.91 in1012.9 mb 0.00 in0.0 mm 0.00 in0.0 mm 0.00 in0.0 mm
01:15 AM 41.5°F5.3°C 36.2°F2.3°C 81% 1.3 mph S2.1 kmh S 2.3 mph3.7 kmh 29.90 in1012.5 mb 0.00 in0.0 mm 0.00 in0.0 mm 0.00 in0.0 mm
01:13 AM 41.5°F5.3°C 36.2°F2.3°C 81% 1.3 mph SW2.1 kmh SW 1.9 mph3.1 kmh 29.90 in1012.5 mb 0.00 in0.0 mm 0.00 in0.0 mm 0.00 in0.0 mm
01:11 AM 41.5°F5.3°C 36.2°F2.3°C 81% 0.9 mph SW1.4 kmh SW 1.3 mph2.1 kmh 29.90 in1012.5 mb 0.00 in0.0 mm 0.00 in0.0 mm 0.00 in0.0 mm
01:09 AM 41.5°F5.3°C 36.2°F2.3°C 81% 1.3 mph WSW2.1 kmh WSW 1.9 mph3.1 kmh 29.91 in1012.9 mb 0.00 in0.0 mm 0.00 in0.0 mm 0.00 in0.0 mm
01:07 AM 41.7°F5.4°C 36.3°F2.4°C 81% 1.3 mph W2.1 kmh W 2.3 mph3.7 kmh 29.91 in1012.9 mb 0.00 in0.0 mm 0.00 in0.0 mm 0.00 in0.0 mm
01:05 AM 41.7°F5.4°C 36.3°F2.4°C 81% 0.9 mph SE1.4 kmh SE 1.3 mph2.1 kmh 29.90 in1012.5 mb 0.00 in0.0 mm 0.00 in0.0 mm 0.00 in0.0 mm
01:03 AM 41.7°F5.4°C 36.3°F2.4°C 81% 0.4 mph SW0.6 kmh SW 0.9 mph1.4 kmh 29.91 in1012.9 mb 0.00 in0.0 mm 0.00 in0.0 mm 0.00 in0.0 mm
01:01 AM 41.7°F5.4°C 36.3°F2.4°C 81% 0.4 mph W0.6 kmh W 0.9 mph1.4 kmh 29.91 in1012.9 mb 0.00 in0.0 mm 0.00 in0.0 mm 0.00 in0.0 mm
12:59 AM 41.7°F5.4°C 36.3°F2.4°C 81% 0.9 mph SW1.4 kmh SW 1.3 mph2.1 kmh 29.91 in1012.9 mb 0.00 in0.0 mm 0.00 in0.0 mm 0.00 in0.0 mm
12:57 AM 41.7°F5.4°C 36.3°F2.4°C 81% 2.3 mph S3.7 kmh S 3.2 mph5.1 kmh 29.90 in1012.5 mb 0.00 in0.0 mm 0.00 in0.0 mm 0.00 in0.0 mm
12:55 AM 41.7°F5.4°C 36.3°F2.4°C 81% 2.3 mph S3.7 kmh S 2.7 mph4.3 kmh 29.90 in1012.5 mb 0.00 in0.0 mm 0.00 in0.0 mm 0.00 in0.0 mm
12:53 AM 41.7°F5.4°C 36.3°F2.4°C 81% 2.3 mph S3.7 kmh S 2.7 mph4.3 kmh 29.90 in1012.5 mb 0.00 in0.0 mm 0.00 in0.0 mm 0.00 in0.0 mm
12:51 AM 41.7°F5.4°C 36.3°F2.4°C 81% 1.3 mph S2.1 kmh S 2.3 mph3.7 kmh 29.91 in1012.9 mb 0.00 in0.0 mm 0.00 in0.0 mm 0.00 in0.0 mm
12:49 AM 41.7°F5.4°C 36.3°F2.4°C 81% 0.9 mph SSW1.4 kmh SSW 1.3 mph2.1 kmh 29.91 in1012.9 mb 0.00 in0.0 mm 0.00 in0.0 mm 0.00 in0.0 mm
12:47 AM 41.7°F5.4°C 36.3°F2.4°C 81% 1.3 mph S2.1 kmh S 1.9 mph3.1 kmh 29.91 in1012.9 mb 0.00 in0.0 mm 0.00 in0.0 mm 0.00 in0.0 mm
12:45 AM 41.9°F5.5°C 36.5°F2.5°C 81% 0.9 mph S1.4 kmh S 1.3 mph2.1 kmh 29.91 in1012.9 mb 0.00 in0.0 mm 0.00 in0.0 mm 0.00 in0.0 mm
12:43 AM 41.9°F5.5°C 36.5°F2.5°C 81% 0.9 mph S1.4 kmh S 1.3 mph2.1 kmh 29.91 in1012.9 mb 0.00 in0.0 mm 0.00 in0.0 mm 0.00 in0.0 mm
12:41 AM 41.9°F5.5°C 36.5°F2.5°C 81% 1.3 mph W2.1 kmh W 1.9 mph3.1 kmh 29.91 in1012.9 mb 0.00 in0.0 mm 0.00 in0.0 mm 0.00 in0.0 mm
12:39 AM 41.9°F5.5°C 36.5°F2.5°C 81% 1.3 mph SW2.1 kmh SW 1.9 mph3.1 kmh 29.91 in1012.9 mb 0.00 in0.0 mm 0.00 in0.0 mm 0.00 in0.0 mm
12:37 AM 41.9°F5.5°C 36.5°F2.5°C 81% 0.9 mph W1.4 kmh W 1.9 mph3.1 kmh 29.91 in1012.9 mb 0.00 in0.0 mm 0.00 in0.0 mm 0.00 in0.0 mm
12:35 AM 41.9°F5.5°C 36.5°F2.5°C 81% 1.3 mph S2.1 kmh S 1.9 mph3.1 kmh 29.91 in1012.9 mb 0.00 in0.0 mm 0.00 in0.0 mm 0.00 in0.0 mm
12:33 AM 41.9°F5.5°C 36.5°F2.5°C 81% 0.9 mph SW1.4 kmh SW 1.3 mph2.1 kmh 29.91 in1012.9 mb 0.00 in0.0 mm 0.00 in0.0 mm 0.00 in0.0 mm
12:31 AM 41.9°F5.5°C 36.5°F2.5°C 81% 0.4 mph SW0.6 kmh SW 0.9 mph1.4 kmh 29.91 in1012.9 mb 0.00 in0.0 mm 0.00 in0.0 mm 0.00 in0.0 mm
12:29 AM 41.9°F5.5°C 36.5°F2.5°C 81% 1.3 mph SW2.1 kmh SW 1.9 mph3.1 kmh 29.91 in1012.9 mb 0.00 in0.0 mm 0.00 in0.0 mm 0.00 in0.0 mm
12:27 AM 41.9°F5.5°C 36.5°F2.5°C 81% 1.3 mph SW2.1 kmh SW 2.3 mph3.7 kmh 29.91 in1012.9 mb 0.00 in0.0 mm 0.00 in0.0 mm 0.00 in0.0 mm
12:25 AM 41.7°F5.4°C 36.3°F2.4°C 81% 0.9 mph S1.4 kmh S 1.3 mph2.1 kmh 29.91 in1012.9 mb 0.00 in0.0 mm 0.00 in0.0 mm 0.00 in0.0 mm
12:23 AM 41.7°F5.4°C 36.3°F2.4°C 81% 0.9 mph SW1.4 kmh SW 1.3 mph2.1 kmh 29.91 in1012.9 mb 0.00 in0.0 mm 0.00 in0.0 mm 0.00 in0.0 mm
12:21 AM 41.7°F5.4°C 36.3°F2.4°C 81% 0.9 mph W1.4 kmh W 1.3 mph2.1 kmh 29.91 in1012.9 mb 0.00 in0.0 mm 0.00 in0.0 mm 0.00 in0.0 mm
12:19 AM 41.7°F5.4°C 36.3°F2.4°C 81% 0.9 mph S1.4 kmh S 1.9 mph3.1 kmh 29.91 in1012.9 mb 0.00 in0.0 mm 0.00 in0.0 mm 0.00 in0.0 mm
12:17 AM 41.7°F5.4°C 36.3°F2.4°C 81% 0.9 mph SSW1.4 kmh SSW 1.3 mph2.1 kmh 29.91 in1012.9 mb 0.00 in0.0 mm 0.00 in0.0 mm 0.00 in0.0 mm
12:15 AM 41.7°F5.4°C 36.3°F2.4°C 81% 1.9 mph SW3.1 kmh SW 2.7 mph4.3 kmh 29.91 in1012.9 mb 0.00 in0.0 mm 0.00 in0.0 mm 0.00 in0.0 mm
12:13 AM 41.7°F5.4°C 36.3°F2.4°C 81% 1.9 mph S3.1 kmh S 2.7 mph4.3 kmh 29.91 in1012.9 mb 0.00 in0.0 mm 0.00 in0.0 mm 0.00 in0.0 mm
12:11 AM 41.7°F5.4°C 36.3°F2.4°C 81% 1.9 mph SW3.1 kmh SW 2.3 mph3.7 kmh 29.91 in1012.9 mb 0.00 in0.0 mm 0.00 in0.0 mm 0.00 in0.0 mm
12:09 AM 41.7°F5.4°C 36.3°F2.4°C 81% 1.3 mph W2.1 kmh W 2.7 mph4.3 kmh 29.91 in1012.9 mb 0.00 in0.0 mm 0.00 in0.0 mm 0.00 in0.0 mm
12:07 AM 41.5°F5.3°C 36.5°F2.5°C 82% 1.9 mph W3.1 kmh W 2.3 mph3.7 kmh 29.91 in1012.9 mb 0.00 in0.0 mm 0.00 in0.0 mm 0.00 in0.0 mm
12:05 AM 41.5°F5.3°C 36.2°F2.3°C 81% 1.9 mph SW3.1 kmh SW 2.7 mph4.3 kmh 29.91 in1012.9 mb 0.00 in0.0 mm 0.00 in0.0 mm 0.00 in0.0 mm
12:03 AM 41.5°F5.3°C 36.2°F2.3°C 81% 1.9 mph S3.1 kmh S 2.3 mph3.7 kmh 29.92 in1013.2 mb 0.00 in0.0 mm 0.00 in0.0 mm 0.00 in0.0 mm
12:01 AM 41.5°F5.3°C 36.2°F2.3°C 81% 1.3 mph SW2.1 kmh SW 1.9 mph3.1 kmh 29.91 in1012.9 mb 0.00 in0.0 mm 0.00 in0.0 mm 0.00 in0.0 mm